Flight Track Log - Related Links

Times and Time Zones

All times are in EDT time to prevent confusion due to time zone crossing. See the AFL150 flight status page for this flight to view local times or setup timezone preferences in your user account.


Time Position Orientation Groundspeed Altitude Reporting Facility
EDT Latitude Longitude Course Direction KTS MPH feet Rate Location/Type
Tue 06:37:01 AM 55.9660 37.3770 254° West 167 192 1,400  Level FlightAware ADS-B
Tue 06:37:16 AM 55.9620 37.3570 250° West 165 190 2,100 2,400 Climbing FlightAware ADS-B
Tue 06:37:36 AM 55.9590 37.3320 258° West 161 185 2,800 1,867 Climbing FlightAware ADS-B
Tue 06:38:01 AM 55.9540 37.2980 255° West 167 192 3,500 1,067 Climbing FlightAware ADS-B
Tue 06:38:21 AM 55.9500 37.2690 256° West 192 221 3,600 750 Climbing FlightAware ADS-B
Tue 06:38:41 AM 55.9450 37.2360 255° West 212 244 4,000 1,029 Climbing FlightAware ADS-B
Tue 06:38:56 AM 55.9430 37.2100 262° West 232 267 4,200 1,543 Climbing FlightAware ADS-B
Tue 06:39:16 AM 55.9470 37.1690 280° West 246 283 4,900 2,400 Climbing FlightAware ADS-B
Tue 06:39:26 AM 55.9500 37.1500 286° West 243 280 5,400 2,250 Climbing FlightAware ADS-B
Tue 06:39:56 AM 55.9570 37.0910 282° West 249 287 6,400 2,118 Climbing FlightAware ADS-B
Tue 06:40:17 AM 55.9610 37.0500 280° West 257 296 7,200 2,100 Climbing FlightAware ADS-B
Tue 06:40:36 AM 55.9650 37.0060 279° West 267 307 7,800 1,941 Climbing FlightAware ADS-B
Tue 06:40:51 AM 55.9680 36.9730 279° West 273 314 8,300 2,057 Climbing FlightAware ADS-B
Tue 06:41:11 AM 55.9720 36.9290 279° West 283 326 9,000 1,800 Climbing FlightAware ADS-B
Tue 06:41:31 AM 55.9760 36.8830 279° West 295 339 9,500 1,680 Climbing FlightAware ADS-B
Tue 06:42:01 AM 55.9830 36.8060 279° West 313 360 10,400 1,700 Climbing FlightAware ADS-B
Tue 06:42:31 AM 55.9790 36.7270 265° West 328 377 11,200 1,662 Climbing FlightAware ADS-B
Tue 06:43:06 AM 55.9720 36.6300 263° West 348 400 12,200 1,920 Climbing FlightAware ADS-B
Tue 06:43:46 AM 55.9630 36.5150 262° West 357 411 13,600 2,080 Climbing FlightAware ADS-B
Tue 06:44:21 AM 55.9560 36.4110 263° West 365 420 14,800 2,160 Climbing FlightAware ADS-B
Tue 06:45:01 AM 55.9470 36.2920 262° West 367 422 16,300 2,143 Climbing FlightAware ADS-B
Tue 06:45:31 AM 55.9400 36.2010 262° West 372 428 17,300 2,585 Climbing FlightAware ADS-B
Tue 06:46:06 AM 55.9320 36.0960 262° West 356 410 19,100 2,914 Climbing FlightAware ADS-B
Tue 06:46:41 AM 55.9250 35.9980 263° West 344 396 20,700 2,451 Climbing FlightAware ADS-B
Tue 06:47:17 AM 55.9170 35.9000 262° West 339 390 22,000 1,886 Climbing FlightAware ADS-B
Tue 06:47:51 AM 55.9100 35.8030 263° West 343 395 22,900 1,459 Climbing FlightAware ADS-B
Tue 06:48:31 AM 55.9010 35.6900 262° West 349 402 23,800 1,371 Climbing FlightAware ADS-B
Tue 06:49:01 AM 55.8940 35.6050 262° West 353 406 24,500 1,292 Climbing FlightAware ADS-B
Tue 06:49:36 AM 55.8860 35.5040 262° West 359 413 25,200 1,200 Climbing FlightAware ADS-B
Tue 06:50:11 AM 55.8780 35.4000 262° West 363 418 25,900 1,200 Climbing FlightAware ADS-B
Tue 06:50:46 AM 55.8700 35.2960 262° West 365 420 26,600 1,200 Climbing FlightAware ADS-B
Tue 06:51:21 AM 55.8610 35.1930 261° West 369 425 27,300 960 Climbing FlightAware ADS-B
Tue 06:52:01 AM 55.8510 35.0710 262° West 380 437 27,800 857 Climbing FlightAware ADS-B
Tue 06:52:31 AM 55.8440 34.9760 263° West 384 442 28,300 764 Climbing FlightAware ADS-B
Tue 06:52:56 AM 55.8480 34.9150 277° West 389 448 28,500 369 Climbing FlightAware ADS-B
Tue 06:53:36 AM 55.8670 34.7770 284° West 405 466 28,700 395 Climbing FlightAware ADS-B
Tue 06:54:12 AM 55.8810 34.6620 282° West 418 481 29,000 441 Climbing FlightAware ADS-B
Tue 06:54:44 AM 55.8950 34.5560 283° West 429 494 29,200 353 Climbing FlightAware ADS-B
Tue 06:55:20 AM 55.9110 34.4290 283° West 441 507 29,400 353 Climbing FlightAware ADS-B
Tue 06:55:52 AM 55.9260 34.3110 283° West 450 518 29,600 500 Climbing FlightAware ADS-B
Tue 06:56:32 AM 55.9450 34.1560 282° West 460 529 30,000 750 Climbing FlightAware ADS-B
Tue 06:57:04 AM 55.9590 34.0410 282° West 460 529 30,500 971 Climbing FlightAware ADS-B
Tue 06:57:40 AM 55.9750 33.9080 282° West 461 531 31,100 971 Climbing FlightAware ADS-B
Tue 06:58:12 AM 55.9900 33.7870 283° West 462 532 31,600 1,000 Climbing FlightAware ADS-B
Tue 06:58:52 AM 56.0060 33.6520 282° West 462 532 32,300 1,000 Climbing FlightAware ADS-B
Tue 06:59:24 AM 56.0210 33.5300 282° West 459 528 32,800 938 Climbing FlightAware ADS-B
Tue 06:59:56 AM 56.0340 33.4120 281° West 457 526 33,300 1,000 Climbing FlightAware ADS-B
Tue 07:00:36 AM 56.0520 33.2560 282° West 454 522 34,000 560 Climbing FlightAware ADS-B
Tue 07:01:11 AM 56.0680 33.1240 282° West 457 526 34,000  Level FlightAware ADS-B
Tue 07:01:46 AM 56.0820 33.0010 282° West 457 526 34,000  Level FlightAware ADS-B
Tue 07:02:21 AM 56.0970 32.8650 281° West 458 527 34,000  Level FlightAware ADS-B
Tue 07:02:56 AM 56.1110 32.7370 281° West 456 525 34,000  Level FlightAware ADS-B
Tue 07:03:31 AM 56.1260 32.6060 282° West 456 525 34,000  Level FlightAware ADS-B
Tue 07:04:06 AM 56.1400 32.4780 281° West 455 524 34,000  Level FlightAware ADS-B
Tue 07:04:41 AM 56.1540 32.3500 281° West 456 525 34,000  Level FlightAware ADS-B
Tue 07:05:16 AM 56.1710 32.2170 283° West 457 526 34,000  Level FlightAware ADS-B
Tue 07:05:52 AM 56.1950 32.0960 290° West 458 527 34,000  Level FlightAware ADS-B
Tue 07:06:22 AM 56.2200 32.0050 296° West 460 529 34,000  Level FlightAware ADS-B
Tue 07:07:01 AM 56.2700 31.8620 302° West 461 531 34,000  Level FlightAware ADS-B
Tue 07:07:39 AM 56.3110 31.7540 304° West 463 533 34,000  Level FlightAware ADS-B
Tue 07:08:12 AM 56.3510 31.6440 303° West 464 534 34,000  Level FlightAware ADS-B
Tue 07:08:55 AM 56.3960 31.5150 302° West 464 534 34,000  Level FlightAware ADS-B
Tue 07:09:31 AM 56.4310 31.4150 302° West 464 534 34,000  Level FlightAware ADS-B
Tue 07:10:07 AM 56.4660 31.3140 302° West 464 534 34,000  Level FlightAware ADS-B
Tue 07:10:44 AM 56.5270 31.1490 304° West 465 535 34,000  Level FlightAware ADS-B
Tue 07:11:28 AM 56.5730 31.0290 305° West 466 536 34,000  Level FlightAware ADS-B
Tue 07:11:59 AM 56.6280 30.9110 310° West 468 539 34,000  Level FlightAware ADS-B
Tue 07:12:34 AM 56.6790 30.8050 311° West 468 539 34,000  Level FlightAware ADS-B
Tue 07:13:14 AM 56.7310 30.6850 308° West 466 536 34,000  Level FlightAware ADS-B
Tue 07:13:49 AM 56.7730 30.5690 303° West 467 537 34,000  Level FlightAware ADS-B
Tue 07:14:37 AM 56.8310 30.4150 305° West 468 539 34,000  Level FlightAware ADS-B
Tue 07:15:11 AM 56.8710 30.3090 305° West 468 539 34,000  Level FlightAware ADS-B
Tue 07:15:46 AM 56.9150 30.1880 304° West 468 539 34,000  Level FlightAware ADS-B
Tue 07:16:21 AM 56.9540 30.0830 304° West 468 539 34,000  Level FlightAware ADS-B
Tue 07:16:56 AM 56.9980 29.9610 304° West 470 541 34,000  Level FlightAware ADS-B
Tue 07:17:31 AM 57.0400 29.8450 304° West 470 541 34,000  Level FlightAware ADS-B
Tue 07:18:06 AM 57.0800 29.7360 304° West 470 541 34,000  Level FlightAware ADS-B
Tue 07:18:46 AM 57.1300 29.5950 303° West 471 542 34,000  Level FlightAware ADS-B
Tue 07:19:26 AM 57.1780 29.4610 303° West 470 541 34,000  Level FlightAware ADS-B
Tue 07:19:56 AM 57.2150 29.3570 303° West 470 541 34,000  Level FlightAware ADS-B
Tue 07:20:31 AM 57.2540 29.2450 303° West 469 540 34,000  Level FlightAware ADS-B
Tue 07:21:06 AM 57.2970 29.1230 303° West 470 541 34,000  Level FlightAware ADS-B
Tue 07:21:46 AM 57.3440 28.9910 303° West 471 542 34,000  Level FlightAware ADS-B
Tue 07:22:16 AM 57.3790 28.8880 302° West 471 542 34,000  Level FlightAware ADS-B
Tue 07:22:51 AM 57.4190 28.7740 303° West 472 543 34,000  Level FlightAware ADS-B
Tue 07:23:31 AM 57.4650 28.6420 303° West 472 543 34,000  Level FlightAware ADS-B
Tue 07:24:06 AM 57.5070 28.5170 302° West 472 543 34,000  Level FlightAware ADS-B
Tue 07:24:46 AM 57.5540 28.3810 303° West 470 541 34,000  Level FlightAware ADS-B
Tue 07:25:26 AM 57.6010 28.2410 302° West 468 539 34,000  Level FlightAware ADS-B
Tue 07:26:01 AM 57.6390 28.1300 303° West 468 539 34,000  Level FlightAware ADS-B
Tue 07:26:36 AM 57.6800 28.0080 302° West 467 537 34,000  Level FlightAware ADS-B
Tue 07:27:16 AM 57.7270 27.8670 302° West 467 537 34,000  Level FlightAware ADS-B
Tue 07:27:56 AM 57.7730 27.7300 302° West 467 537 34,000  Level FlightAware ADS-B
Tue 07:28:26 AM 57.8070 27.6280 302° West 468 539 34,000  Level FlightAware ADS-B
Tue 07:29:13 AM 57.8640 27.4870 307° West 471 542 34,000  Level FlightAware ADS-B
Tue 07:29:51 AM 57.9270 27.3890 320° Northwest 474 545 34,000  Level FlightAware ADS-B
Tue 07:30:26 AM 57.9900 27.2850 319° Northwest 473 544 34,000  Level FlightAware ADS-B
Tue 07:31:13 AM 58.0600 27.1650 318° Northwest 473 544 34,000  Level FlightAware ADS-B
Tue 07:31:51 AM 58.1230 27.0560 318° Northwest 472 543 34,000  Level FlightAware ADS-B
Tue 07:32:26 AM 58.1810 26.9530 317° Northwest 473 544 34,000  Level FlightAware ADS-B
Tue 07:33:01 AM 58.2330 26.8620 317° Northwest 471 542 34,000  Level FlightAware ADS-B
Tue 07:33:36 AM 58.2940 26.7550 317° Northwest 471 542 34,000  Level FlightAware ADS-B
Tue 07:34:06 AM 58.3430 26.6690 317° Northwest 471 542 34,000  Level FlightAware ADS-B
Tue 07:34:46 AM 58.4070 26.5550 317° Northwest 470 541 34,000  Level FlightAware ADS-B
Tue 07:35:24 AM 58.4670 26.4480 317° Northwest 471 542 34,000  Level FlightAware ADS-B
Tue 07:35:56 AM 58.5170 26.3570 316° Northwest 470 541 34,000  Level FlightAware ADS-B
Tue 07:36:33 AM 58.5770 26.2500 317° Northwest 470 541 34,000  Level FlightAware ADS-B
Tue 07:37:06 AM 58.6260 26.1600 316° Northwest 469 540 34,000  Level FlightAware ADS-B
Tue 07:37:42 AM 58.6830 26.0560 317° Northwest 469 540 34,000  Level FlightAware ADS-B
Tue 07:38:20 AM 58.7450 25.9430 317° Northwest 470 541 34,000  Level FlightAware ADS-B
Tue 07:38:51 AM 58.7940 25.8530 316° Northwest 470 541 34,000  Level FlightAware ADS-B
Tue 07:39:26 AM 58.8480 25.7530 316° Northwest 470 541 34,000  Level FlightAware ADS-B
Tue 07:40:04 AM 58.9110 25.6570 322° Northwest 472 543 34,000  Level FlightAware ADS-B
Tue 07:40:40 AM 58.9750 25.5610 322° Northwest 470 541 34,000  Level FlightAware ADS-B
Tue 07:41:10 AM 59.0250 25.4820 321° Northwest 469 540 34,000  Level FlightAware ADS-B
Tue 07:41:48 AM 59.0850 25.3860 321° Northwest 468 539 34,000  Level FlightAware ADS-B
Tue 07:42:20 AM 59.1420 25.2950 321° Northwest 467 537 34,000  Level FlightAware ADS-B
Tue 07:42:58 AM 59.2050 25.1940 321° Northwest 466 536 34,000  Level FlightAware ADS-B
Tue 07:43:30 AM 59.2560 25.1120 321° Northwest 464 534 34,000  Level FlightAware ADS-B
Tue 07:44:06 AM 59.3170 25.0140 321° Northwest 464 534 34,000  Level FlightAware ADS-B
Tue 07:44:42 AM 59.3760 24.9180 320° Northwest 465 535 34,000  Level FlightAware ADS-B
Tue 07:45:18 AM 59.4350 24.8210 320° Northwest 465 535 34,000  Level FlightAware ADS-B
Tue 07:45:54 AM 59.4950 24.7240 321° Northwest 465 535 34,000  Level FlightAware ADS-B
Tue 07:46:26 AM 59.5480 24.6370 320° Northwest 465 535 34,000  Level FlightAware ADS-B
Tue 07:47:02 AM 59.6070 24.5390 320° Northwest 464 534 34,000  Level FlightAware ADS-B
Tue 07:47:38 AM 59.6650 24.4430 320° Northwest 464 534 34,000  Level FlightAware ADS-B
Tue 07:48:10 AM 59.7180 24.3550 320° Northwest 462 532 34,000  Level FlightAware ADS-B
Tue 07:48:46 AM 59.7770 24.2570 320° Northwest 462 532 34,000  Level FlightAware ADS-B
Tue 07:49:22 AM 59.8350 24.1580 319° Northwest 461 531 34,000  Level FlightAware ADS-B
Tue 07:50:00 AM 59.8960 24.0550 320° Northwest 461 531 34,000  Level FlightAware ADS-B
Tue 07:50:34 AM 59.9520 23.9610 320° Northwest 461 531 34,000  Level FlightAware ADS-B
Tue 07:51:10 AM 60.0110 23.8610 320° Northwest 460 529 34,000  Level FlightAware ADS-B
Tue 07:51:42 AM 60.0620 23.7730 319° Northwest 460 529 34,000  Level FlightAware ADS-B
Tue 07:52:18 AM 60.1200 23.6720 319° Northwest 459 528 34,000  Level FlightAware ADS-B
Tue 07:52:52 AM 60.1730 23.5820 320° Northwest 458 527 34,000  Level FlightAware ADS-B
Tue 07:53:27 AM 60.2310 23.4810 319° Northwest 457 526 34,000  Level FlightAware ADS-B
Tue 07:54:03 AM 60.2880 23.3820 319° Northwest 458 527 34,000 265 Level FlightAware ADS-B
Tue 07:54:35 AM 60.3380 23.2930 319° Northwest 457 526 34,300 529 Climbing FlightAware ADS-B
Tue 07:55:11 AM 60.3970 23.1890 319° Northwest 459 528 34,600 500 Climbing FlightAware ADS-B
Tue 07:55:47 AM 60.4530 23.0900 319° Northwest 457 526 34,900 500 Climbing FlightAware ADS-B
Tue 07:56:23 AM 60.5110 22.9880 319° Northwest 454 522 35,200 514 Climbing FlightAware ADS-B
Tue 07:56:57 AM 60.5640 22.8920 318° Northwest 452 520 35,500 514 Climbing FlightAware ADS-B
Tue 07:57:33 AM 60.6200 22.7910 319° Northwest 451 519 35,800 417 Climbing FlightAware ADS-B
Tue 07:58:09 AM 60.6750 22.6930 319° Northwest 453 521 36,000 176 Climbing FlightAware ADS-B
Tue 07:58:41 AM 60.7260 22.6010 319° Northwest 454 522 36,000  Level FlightAware ADS-B
Tue 07:59:19 AM 60.7850 22.4940 319° Northwest 450 518 36,000  Level FlightAware ADS-B
Tue 07:59:53 AM 60.8380 22.3970 318° Northwest 448 516 36,000  Level FlightAware ADS-B
Tue 08:00:25 AM 60.8860 22.3080 318° Northwest 447 514 36,000  Level FlightAware ADS-B
Tue 08:01:04 AM 60.9460 22.1970 318° Northwest 446 513 36,000  Level FlightAware ADS-B
Tue 08:01:37 AM 60.9950 22.1060 318° Northwest 446 513 36,000  Level FlightAware ADS-B
Tue 08:02:14 AM 61.0470 21.9910 313° West 441 507 36,000  Level FlightAware ADS-B
Tue 08:02:44 AM 61.0830 21.8890 306° West 439 505 36,000  Level FlightAware ADS-B
Tue 08:03:23 AM 61.1260 21.7480 302° West 439 505 36,000  Level FlightAware ADS-B
Tue 08:03:58 AM 61.1650 21.6240 303° West 439 505 36,000  Level FlightAware ADS-B
Tue 08:04:30 AM 61.2000 21.5090 302° West 440 506 36,000  Level FlightAware ADS-B
Tue 08:05:07 AM 61.2380 21.3800 302° West 440 506 36,000  Level FlightAware ADS-B
Tue 08:05:43 AM 61.2760 21.2510 302° West 440 506 36,000  Level FlightAware ADS-B
Tue 08:06:20 AM 61.3150 21.1180 301° West 440 506 36,000  Level FlightAware ADS-B
Tue 08:06:53 AM 61.3500 20.9980 301° West 438 504 36,000  Level FlightAware ADS-B
Tue 08:07:29 AM 61.3880 20.8680 301° West 438 504 36,000  Level FlightAware ADS-B
Tue 08:08:04 AM 61.4250 20.7420 302° West 437 503 36,000  Level FlightAware ADS-B
Tue 08:08:38 AM 61.4590 20.6230 301° West 435 501 36,000  Level FlightAware ADS-B
Tue 08:09:11 AM 61.4950 20.4980 301° West 436 502 36,000  Level FlightAware ADS-B
Tue 08:09:46 AM 61.5290 20.3770 301° West 436 502 36,000  Level FlightAware ADS-B
Tue 08:10:23 AM 61.5680 20.2380 301° West 435 501 36,000  Level FlightAware ADS-B
Tue 08:10:56 AM 61.6020 20.1190 301° West 436 502 36,000  Level FlightAware ADS-B
Tue 08:11:33 AM 61.6310 20.0160 301° West 435 501 36,000  Level FlightAware ADS-B
Tue 08:12:10 AM 61.6740 19.8600 300° West 435 501 36,000  Level FlightAware ADS-B
Tue 08:12:40 AM 61.7070 19.7420 301° West 433 498 36,000  Level FlightAware ADS-B
Tue 08:13:17 AM 61.7440 19.6060 300° West 433 498 36,000  Level FlightAware ADS-B
Tue 08:13:54 AM 61.7810 19.4700 300° West 431 496 36,000  Level FlightAware ADS-B
Tue 08:14:29 AM 61.8110 19.3470 297° West 430 495 36,000  Level FlightAware ADS-B
Tue 08:15:03 AM 61.8440 19.2110 297° West 429 494 36,000  Level FlightAware ADS-B
Tue 08:15:36 AM 61.8710 19.0960 297° West 428 493 36,000  Level FlightAware ADS-B
Tue 08:16:10 AM 61.9010 18.9750 298° West 429 494 36,000  Level FlightAware ADS-B
Tue 08:16:50 AM 61.9390 18.8160 297° West 426 490 36,000  Level FlightAware ADS-B
Tue 08:17:21 AM 61.9660 18.7040 297° West 426 490 36,000  Level FlightAware ADS-B
Tue 08:17:59 AM 62.0010 18.5590 297° West 424 488 36,000  Level FlightAware ADS-B
Tue 08:18:34 AM 62.0300 18.4350 297° West 424 488 36,000  Level FlightAware ADS-B
Tue 08:19:07 AM 62.0610 18.3070 297° West 424 488 36,000  Level FlightAware ADS-B
Tue 08:19:44 AM 62.0920 18.1740 297° West 424 488 36,000  Level FlightAware ADS-B
Tue 08:20:18 AM 62.1220 18.0440 296° West 425 489 36,000  Level FlightAware ADS-B
Tue 08:20:54 AM 62.1530 17.9080 296° West 426 490 36,000  Level FlightAware ADS-B
Tue 08:21:27 AM 62.1810 17.7870 296° West 426 490 36,000  Level FlightAware ADS-B
Tue 08:22:09 AM 62.2190 17.6210 296° West 426 490 36,000  Level FlightAware ADS-B
Tue 08:22:45 AM 62.2500 17.4870 296° West 425 489 36,000  Level FlightAware ADS-B
Tue 08:23:21 AM 62.2810 17.3490 296° West 425 489 36,000  Level FlightAware ADS-B
Tue 08:23:53 AM 62.3080 17.2280 296° West 424 488 36,000  Level FlightAware ADS-B
Tue 08:24:29 AM 62.3380 17.0920 295° West 423 487 36,000  Level FlightAware ADS-B
Tue 08:25:05 AM 62.3690 16.9540 296° West 423 487 36,000  Level FlightAware ADS-B
Tue 08:25:41 AM 62.3980 16.8190 295° West 420 483 36,000  Level FlightAware ADS-B
Tue 08:26:13 AM 62.4250 16.6970 296° West 419 482 36,000  Level FlightAware ADS-B
Tue 08:26:49 AM 62.4540 16.5620 295° West 420 483 36,000  Level FlightAware ADS-B
Tue 08:27:25 AM 62.4840 16.4250 295° West 419 482 36,000  Level FlightAware ADS-B
Tue 08:28:01 AM 62.5130 16.2890 295° West 418 481 36,000  Level FlightAware ADS-B
Tue 08:28:33 AM 62.5390 16.1690 295° West 419 482 36,000  Level FlightAware ADS-B
Tue 08:29:09 AM 62.5680 16.0330 295° West 419 482 36,000  Level FlightAware ADS-B
Tue 08:29:47 AM 62.5980 15.8880 294° West 418 481 36,000  Level FlightAware ADS-B
Tue 08:30:15 AM 62.6210 15.7800 295° West 418 481 36,000  Level FlightAware ADS-B
Tue 08:30:55 AM 62.6530 15.6250 294° West 419 482 36,000  Level FlightAware ADS-B
Tue 08:31:31 AM 62.6810 15.4910 295° West 418 481 36,000  Level FlightAware ADS-B
Tue 08:32:07 AM 62.7090 15.3510 294° West 418 481 36,000  Level FlightAware ADS-B
Tue 08:32:39 AM 62.7350 15.2280 295° West 419 482 36,000  Level FlightAware ADS-B
Tue 08:33:15 AM 62.7630 15.0880 294° West 419 482 36,000  Level FlightAware ADS-B
Tue 08:33:51 AM 62.7910 14.9490 294° West 419 482 36,000  Level FlightAware ADS-B
Tue 08:34:23 AM 62.8160 14.8240 294° West 417 480 36,000  Level FlightAware ADS-B
Tue 08:34:59 AM 62.8420 14.6900 293° West 417 480 36,000  Level FlightAware ADS-B
Tue 08:35:35 AM 62.8700 14.5500 294° West 417 480 36,000  Level FlightAware ADS-B
Tue 08:36:09 AM 62.8960 14.4190 294° West 416 479 36,000  Level FlightAware ADS-B
Tue 08:36:45 AM 62.9230 14.2780 293° West 418 481 36,000  Level FlightAware ADS-B
Tue 08:37:21 AM 62.9500 14.1390 293° West 417 480 36,000  Level FlightAware ADS-B
Tue 08:37:57 AM 62.9770 13.9950 292° West 418 481 36,000  Level FlightAware ADS-B
Tue 08:38:31 AM 63.0020 13.8680 293° West 417 480 36,000  Level FlightAware ADS-B
Tue 08:39:03 AM 63.0260 13.7400 293° West 416 479 36,000  Level FlightAware ADS-B
Tue 08:39:39 AM 63.0530 13.5980 293° West 420 483 36,000  Level FlightAware ADS-B
Tue 08:40:13 AM 63.0790 13.4650 293° West 421 484 36,000  Level FlightAware ADS-B
Tue 08:40:47 AM 63.1070 13.3320 295° West 416 479 36,000  Level FlightAware ADS-B
Tue 08:41:25 AM 63.1360 13.1850 294° West 413 475 36,000  Level FlightAware ADS-B
Tue 08:42:01 AM 63.1640 13.0470 294° West 414 476 36,000  Level FlightAware ADS-B
Tue 08:42:33 AM 63.1870 12.9260 293° West 415 478 36,000  Level FlightAware ADS-B
Tue 08:43:09 AM 63.2150 12.7860 294° West 412 474 36,000  Level FlightAware ADS-B
Tue 08:43:45 AM 63.2420 12.6440 293° West 412 474 36,000  Level FlightAware ADS-B
Tue 08:44:22 AM 63.2690 12.5050 293° West 413 475 36,000  Level FlightAware ADS-B
Tue 08:44:55 AM 63.2940 12.3740 293° West 412 474 36,000  Level FlightAware ADS-B
Tue 08:45:31 AM 63.3210 12.2340 293° West 413 475 36,000  Level FlightAware ADS-B
Tue 08:46:03 AM 63.3450 12.1080 293° West 413 475 36,000  Level FlightAware ADS-B
Tue 08:46:39 AM 63.3720 11.9660 293° West 412 474 36,000  Level FlightAware ADS-B
Tue 08:47:15 AM 63.3980 11.8260 293° West 411 473 36,000  Level FlightAware ADS-B
Tue 08:47:49 AM 63.4220 11.6950 292° West 409 471 36,000  Level FlightAware ADS-B
Tue 08:48:27 AM 63.4490 11.5500 293° West 408 470 36,000  Level FlightAware ADS-B
Tue 08:48:59 AM 63.4730 11.4200 293° West 410 472 36,000  Level FlightAware ADS-B
Tue 08:49:33 AM 63.4970 11.2880 292° West 410 472 36,000  Level FlightAware ADS-B
Tue 08:50:09 AM 63.5220 11.1470 292° West 411 473 36,000  Level FlightAware ADS-B
Tue 08:50:45 AM 63.5480 11.0030 292° West 411 473 36,000  Level FlightAware ADS-B
Tue 08:51:19 AM 63.5710 10.8720 292° West 409 471 36,000  Level FlightAware ADS-B
Tue 08:51:55 AM 63.5960 10.7290 292° West 408 470 36,000  Level FlightAware ADS-B
Tue 08:52:31 AM 63.6210 10.5870 292° West 409 471 36,000  Level FlightAware ADS-B
Tue 08:53:07 AM 63.6460 10.4460 292° West 409 471 36,000  Level FlightAware ADS-B
Tue 08:53:39 AM 63.6670 10.3210 291° West 408 470 36,000  Level FlightAware ADS-B
Tue 08:54:17 AM 63.6930 10.1700 291° West 410 472 36,000  Level FlightAware ADS-B
Tue 08:54:49 AM 63.7150 10.0420 291° West 409 471 36,000  Level FlightAware ADS-B
Tue 08:55:26 AM 63.7390 9.8990 291° West 408 470 36,000  Level FlightAware ADS-B
Tue 08:55:59 AM 63.7620 9.7630 291° West 407 468 36,000  Level FlightAware ADS-B
Tue 08:56:38 AM 63.7880 9.6100 291° West 406 467 36,000  Level FlightAware ADS-B
Tue 08:57:10 AM 63.8090 9.4830 291° West 404 465 36,000  Level FlightAware ADS-B
Tue 08:57:47 AM 63.8320 9.3390 290° West 404 465 36,000  Level FlightAware ADS-B
Tue 08:58:19 AM 63.8530 9.2090 290° West 404 465 36,000  Level FlightAware ADS-B
Tue 08:58:55 AM 63.8760 9.0680 290° West 406 467 36,000  Level FlightAware ADS-B
Tue 08:59:31 AM 63.9000 8.9220 291° West 407 468 36,000  Level FlightAware ADS-B
Tue 09:00:08 AM 63.9230 8.7740 290° West 408 470 36,000  Level FlightAware ADS-B
Tue 09:00:40 AM 63.9440 8.6430 290° West 408 470 36,000  Level FlightAware ADS-B
Tue 09:01:15 AM 63.9660 8.5040 290° West 409 471 36,000  Level FlightAware ADS-B
Tue 09:01:48 AM 63.9860 8.3710 289° West 409 471 36,000  Level FlightAware ADS-B
Tue 09:02:26 AM 64.0090 8.2240 290° West 408 470 36,000  Level FlightAware ADS-B
Tue 09:03:02 AM 64.0320 8.0710 289° West 409 471 36,000  Level FlightAware ADS-B
Tue 09:03:37 AM 64.0540 7.9270 289° West 410 472 36,000  Level FlightAware ADS-B
Tue 09:04:10 AM 64.0750 7.7920 290° West 411 473 36,000  Level FlightAware ADS-B
Tue 09:04:45 AM 64.0960 7.6480 289° West 411 473 36,000  Level FlightAware ADS-B
Tue 09:05:22 AM 64.1180 7.5000 289° West 410 472 36,000  Level FlightAware ADS-B
Tue 09:05:56 AM 64.1390 7.3580 289° West 409 471 36,000  Level FlightAware ADS-B
Tue 09:06:33 AM 64.1610 7.2060 288° West 408 470 36,000  Level FlightAware ADS-B
Tue 09:07:05 AM 64.1800 7.0740 288° West 407 468 36,000  Level FlightAware ADS-B
Tue 09:07:40 AM 64.2010 6.9320 289° West 407 468 36,000  Level FlightAware ADS-B
Tue 09:08:16 AM 64.2210 6.7870 288° West 406 467 36,000  Level FlightAware ADS-B
Tue 09:08:46 AM 64.2390 6.6620 288° West 405 466 36,000  Level FlightAware ADS-B
Tue 09:09:23 AM 64.2600 6.5120 288° West 404 465 36,000  Level FlightAware ADS-B
Tue 09:10:00 AM 64.2810 6.3620 288° West 403 464 36,000  Level FlightAware ADS-B
Tue 09:10:37 AM 64.3020 6.2110 288° West 403 464 36,000  Level FlightAware ADS-B
Tue 09:11:11 AM 64.3210 6.0700 287° West 403 464 36,000  Level FlightAware ADS-B
Tue 09:12:03 AM 64.3430 5.9010 287° West 402 463 36,000  Level FlightAware ADS-B
Tue 09:12:42 AM 64.3700 5.7060 288° West 401 461 36,000  Level FlightAware ADS-B
Tue 09:13:18 AM 64.3900 5.5530 287° West 402 463 36,000  Level FlightAware ADS-B
Tue 09:13:50 AM 64.4070 5.4250 287° West 403 464 36,000  Level FlightAware ADS-B
Tue 09:14:21 AM 64.4230 5.3000 287° West 404 465 36,000  Level FlightAware ADS-B
Tue 09:15:03 AM 64.4460 5.1190 286° West 404 465 36,000  Level FlightAware ADS-B
Tue 09:15:38 AM 64.4650 4.9740 287° West 404 465 36,000  Level FlightAware ADS-B
Tue 09:16:13 AM 64.4810 4.8420 286° West 405 466 36,000  Level FlightAware ADS-B
Tue 09:16:47 AM 64.5000 4.6910 286° West 404 465 36,000  Level FlightAware ADS-B
Tue 09:17:22 AM 64.5180 4.5450 286° West 404 465 36,000  Level FlightAware ADS-B
Tue 09:17:58 AM 64.5370 4.3930 286° West 404 465 36,000  Level FlightAware ADS-B
Tue 09:18:31 AM 64.5540 4.2560 286° West 403 464 36,000  Level FlightAware ADS-B
Tue 09:19:04 AM 64.5710 4.1170 286° West 403 464 36,000  Level FlightAware ADS-B
Tue 09:19:44 AM 64.5900 3.9520 285° West 404 465 36,000  Level FlightAware ADS-B
Tue 09:20:17 AM 64.6060 3.8150 285° West 404 465 36,000  Level FlightAware ADS-B
Tue 09:20:53 AM 64.6240 3.6620 285° West 405 466 36,000  Level FlightAware ADS-B
Tue 09:21:30 AM 64.6420 3.5120 286° West 403 464 36,000  Level FlightAware ADS-B
Tue 09:22:02 AM 64.6570 3.3790 285° West 404 465 36,000  Level FlightAware ADS-B
Tue 09:22:38 AM 64.6750 3.2220 285° West 405 466 36,000  Level FlightAware ADS-B
Tue 09:23:14 AM 64.6920 3.0720 285° West 406 467 36,000  Level FlightAware ADS-B
Tue 09:23:45 AM 64.7070 2.9380 285° West 406 467 36,000  Level FlightAware ADS-B
Tue 09:24:22 AM 64.7210 2.8040 284° West 406 467 36,000  Level FlightAware ADS-B
Tue 09:24:58 AM 64.7350 2.6730 284° West 406 467 36,000  Level FlightAware ADS-B
Tue 09:25:36 AM 64.7490 2.5350 283° West 406 467 36,000  Level FlightAware ADS-B
Tue 09:26:12 AM 64.7630 2.4040 284° West 406 467 36,000  Level FlightAware ADS-B
Tue 09:26:49 AM 64.7780 2.2700 285° West 406 467 36,000  Level FlightAware ADS-B
Tue 09:27:23 AM 64.7910 2.1460 284° West 406 467 36,000  Level FlightAware ADS-B
Tue 09:28:00 AM 64.8050 2.0120 284° West 406 467 36,000  Level FlightAware ADS-B
Tue 09:28:36 AM 64.8190 1.8800 284° West 406 467 36,000  Level FlightAware ADS-B
Tue 09:29:12 AM 64.8330 1.7490 284° West 406 467 36,000  Level FlightAware ADS-B
Tue 09:29:49 AM 64.8470 1.6150 284° West 406 467 36,000  Level FlightAware ADS-B
Tue 09:30:23 AM 64.8600 1.4910 284° West 406 467 36,000  Level FlightAware ADS-B
Tue 09:31:00 AM 64.8750 1.3560 285° West 406 467 36,000  Level FlightAware ADS-B
Tue 09:31:36 AM 64.8880 1.2240 283° West 406 467 36,000  Level FlightAware ADS-B
Tue 09:32:13 AM 64.9030 1.0890 285° West 406 467 36,000  Level FlightAware ADS-B
Tue 09:32:49 AM 64.9170 0.9580 284° West 406 467 36,000  Level FlightAware ADS-B
Tue 09:33:25 AM 64.9300 0.8260 283° West 406 467 36,000  Level FlightAware ADS-B
Tue 09:36:00 AM 64.9516 0.0728 274° West  Level Estimated
Tue 09:37:00 AM 64.9589 -0.2190 274° West  Level Estimated
Tue 09:38:00 AM 64.9657 -0.5111 273° West  Level Estimated
Tue 09:39:00 AM 64.9718 -0.8032 273° West  Level Estimated
Tue 09:40:00 AM 64.9774 -1.0955 273° West  Level Estimated
Tue 09:41:00 AM 64.9825 -1.3879 272° West  Level Estimated
Tue 09:42:00 AM 64.9870 -1.6804 272° West  Level Estimated
Tue 09:43:00 AM 64.9909 -1.9730 272° West  Level Estimated
Tue 09:44:00 AM 64.9942 -2.2657 272° West  Level Estimated
Tue 09:45:00 AM 64.9969 -2.5584 271° West  Level Estimated
Tue 09:46:00 AM 64.9991 -2.8512 271° West  Level Estimated
Tue 09:47:00 AM 65.0007 -3.1441 271° West  Level Estimated
Tue 09:48:00 AM 65.0018 -3.4369 271° West  Level Estimated
Tue 09:49:00 AM 65.0022 -3.7298 270° West  Level Estimated
Tue 09:50:00 AM 65.0021 -4.0227 270° West  Level Estimated
Tue 09:51:00 AM 65.0014 -4.3156 270° West  Level Estimated
Tue 09:52:00 AM 65.0002 -4.6085 270° West  Level Estimated
Tue 09:53:00 AM 64.9983 -4.9013 269° West  Level Estimated
Tue 09:54:00 AM 64.9959 -5.1941 269° West  Level Estimated
Tue 09:55:00 AM 64.9929 -5.4868 269° West  Level Estimated
Tue 09:56:00 AM 64.9894 -5.7794 268° West  Level Estimated
Tue 09:57:00 AM 64.9853 -6.0720 268° West  Level Estimated
Tue 09:58:00 AM 64.9806 -6.3645 268° West  Level Estimated
Tue 09:59:00 AM 64.9753 -6.6568 268° West  Level Estimated
Tue 10:00:00 AM 64.9695 -6.9491 267° West  Level Estimated
Tue 10:01:00 AM 64.9630 -7.2412 267° West  Level Estimated
Tue 10:02:00 AM 64.9561 -7.5331 267° West  Level Estimated
Tue 10:03:00 AM 64.9485 -7.8249 267° West  Level Estimated
Tue 10:04:00 AM 64.9404 -8.1166 266° West  Level Estimated
Tue 10:05:00 AM 64.9317 -8.4080 266° West  Level Estimated
Tue 10:06:00 AM 64.9224 -8.6992 266° West  Level Estimated
Tue 10:07:00 AM 64.9126 -8.9903 266° West  Level Estimated
Tue 10:08:00 AM 64.9022 -9.2811 265° West  Level Estimated
Tue 10:09:00 AM 64.8913 -9.5717 265° West  Level Estimated
Tue 10:10:00 AM 64.8797 -9.8620 265° West  Level Estimated
Tue 10:11:00 AM 64.8676 -10.1521 265° West  Level Estimated
Tue 10:12:00 AM 64.8550 -10.4420 264° West  Level Estimated
Tue 10:13:00 AM 64.8418 -10.7315 264° West  Level Estimated
Tue 10:14:00 AM 64.8280 -11.0208 264° West  Level Estimated
Tue 10:15:00 AM 64.8136 -11.3097 263° West  Level Estimated
Tue 10:16:00 AM 64.7987 -11.5984 263° West  Level Estimated
Tue 10:17:00 AM 64.7832 -11.8867 263° West  Level Estimated
Tue 10:18:00 AM 64.7672 -12.1747 263° West  Level Estimated
Tue 10:19:00 AM 64.7506 -12.4623 262° West  Level Estimated
Tue 10:20:00 AM 64.7335 -12.7496 262° West  Level Estimated
Tue 10:21:00 AM 64.7158 -13.0365 262° West  Level Estimated
Tue 10:22:00 AM 64.6976 -13.3230 262° West  Level Estimated
Tue 10:23:00 AM 64.6788 -13.6091 261° West  Level Estimated
Tue 10:23:47 AM 65.0770 -13.5890 261° West 439 505 36,000  Level FlightAware ADS-B
Tue 10:24:24 AM 65.0790 -13.7660 272° West 439 505 36,000  Level FlightAware ADS-B
Tue 10:24:58 AM 65.0800 -13.9290 271° West 439 505 36,000  Level FlightAware ADS-B
Tue 10:25:31 AM 65.0810 -14.0850 271° West 438 504 36,000  Level FlightAware ADS-B
Tue 10:26:07 AM 65.0820 -14.2600 271° West 439 505 36,000  Level FlightAware ADS-B
Tue 10:26:42 AM 65.0830 -14.4270 271° West 439 505 36,000  Level FlightAware ADS-B
Tue 10:27:19 AM 65.0830 -14.6030 270° West 439 505 36,000  Level FlightAware ADS-B
Tue 10:27:52 AM 65.0840 -14.7650 271° West 439 505 36,000  Level FlightAware ADS-B
Tue 10:28:28 AM 65.0840 -14.9400 270° West 439 505 36,000  Level FlightAware ADS-B
Tue 10:29:02 AM 65.0840 -15.1000 270° West 439 505 36,000  Level FlightAware ADS-B
Tue 10:29:39 AM 65.0840 -15.2760 270° West 439 505 36,000  Level FlightAware ADS-B
Tue 10:30:08 AM 65.0830 -15.4160 269° West 439 505 36,000  Level FlightAware ADS-B
Tue 10:30:48 AM 65.0830 -15.6090 270° West 438 504 36,000  Level FlightAware ADS-B
Tue 10:31:22 AM 65.0820 -15.7710 269° West 438 504 36,000  Level FlightAware ADS-B
Tue 10:31:57 AM 65.0810 -15.9350 269° West 439 505 36,000  Level FlightAware ADS-B
Tue 10:32:34 AM 65.0800 -16.1160 269° West 440 506 36,000  Level FlightAware ADS-B
Tue 10:33:07 AM 65.0790 -16.2730 269° West 441 507 36,000  Level FlightAware ADS-B
Tue 10:33:44 AM 65.0770 -16.4460 269° West 443 510 36,000  Level FlightAware ADS-B
Tue 10:34:20 AM 65.0750 -16.6260 269° West 446 513 36,000  Level FlightAware ADS-B
Tue 10:34:53 AM 65.0730 -16.7870 268° West 448 516 36,000  Level FlightAware ADS-B
Tue 10:35:28 AM 65.0710 -16.9580 268° West 449 517 36,000  Level FlightAware ADS-B
Tue 10:36:05 AM 65.0690 -17.1400 269° West 450 518 36,000  Level FlightAware ADS-B
Tue 10:36:37 AM 65.0660 -17.2950 267° West 449 517 36,000  Level FlightAware ADS-B
Tue 10:37:09 AM 65.0640 -17.4530 268° West 449 517 36,000  Level FlightAware ADS-B
Tue 10:37:47 AM 65.0610 -17.6430 268° West 449 517 36,000  Level FlightAware ADS-B
Tue 10:38:21 AM 65.0580 -17.8050 268° West 448 516 36,000  Level FlightAware ADS-B
Tue 10:38:57 AM 65.0540 -17.9850 267° West 447 514 36,000  Level FlightAware ADS-B
Tue 10:39:34 AM 65.0510 -18.1590 268° West 446 513 36,000  Level FlightAware ADS-B
Tue 10:40:09 AM 65.0470 -18.3330 267° West 446 513 36,000  Level FlightAware ADS-B
Tue 10:40:42 AM 65.0430 -18.4920 267° West 446 513 36,000  Level FlightAware ADS-B
Tue 10:41:18 AM 65.0390 -18.6670 267° West 445 512 36,000  Level FlightAware ADS-B
Tue 10:41:53 AM 65.0350 -18.8370 267° West 443 510 36,000  Level FlightAware ADS-B
Tue 10:42:29 AM 65.0300 -19.0120 266° West 441 507 36,000  Level FlightAware ADS-B
Tue 10:43:05 AM 65.0250 -19.1870 266° West 441 507 36,000  Level FlightAware ADS-B
Tue 10:43:37 AM 65.0210 -19.3370 266° West 440 506 36,000  Level FlightAware ADS-B
Tue 10:44:12 AM 65.0160 -19.5080 266° West 439 505 36,000  Level FlightAware ADS-B
Tue 10:44:51 AM 65.0100 -19.6870 266° West 438 504 36,000  Level FlightAware ADS-B
Tue 10:45:24 AM 65.0050 -19.8460 266° West 437 503 36,000  Level FlightAware ADS-B
Tue 10:46:00 AM 64.9990 -20.0190 265° West 435 501 36,000  Level FlightAware ADS-B
Tue 10:46:34 AM 64.9890 -20.1760 262° West 434 499 36,000  Level FlightAware ADS-B
Tue 10:47:10 AM 64.9780 -20.3420 261° West 433 498 36,000  Level FlightAware ADS-B
Tue 10:47:42 AM 64.9680 -20.4960 261° West 433 498 36,000  Level FlightAware ADS-B
Tue 10:48:18 AM 64.9580 -20.6430 261° West 433 498 36,000  Level FlightAware ADS-B
Tue 10:48:54 AM 64.9460 -20.8250 261° West 433 498 36,000  Level FlightAware ADS-B
Tue 10:49:27 AM 64.9350 -20.9760 260° West 433 498 36,000  Level FlightAware ADS-B
Tue 10:50:06 AM 64.9220 -21.1640 261° West 433 498 36,000  Level FlightAware ADS-B
Tue 10:50:39 AM 64.9110 -21.3140 260° West 433 498 36,000  Level FlightAware ADS-B
Tue 10:51:12 AM 64.8990 -21.4710 260° West 434 499 36,000  Level FlightAware ADS-B
Tue 10:51:47 AM 64.8880 -21.6300 261° West 434 499 36,000  Level FlightAware ADS-B
Tue 10:52:23 AM 64.8750 -21.7980 260° West 435 501 36,000  Level FlightAware ADS-B
Tue 10:53:01 AM 64.8610 -21.9750 260° West 436 502 36,000  Level FlightAware ADS-B
Tue 10:53:32 AM 64.8500 -22.1200 260° West 436 502 36,000  Level FlightAware ADS-B
Tue 10:54:08 AM 64.8370 -22.2870 260° West 436 502 36,000  Level FlightAware ADS-B
Tue 10:54:42 AM 64.8240 -22.4460 259° West 435 501 36,000  Level FlightAware ADS-B
Tue 10:55:20 AM 64.8100 -22.6220 259° West 434 499 36,000  Level FlightAware ADS-B
Tue 10:55:53 AM 64.7980 -22.7710 259° West 434 499 36,000  Level FlightAware ADS-B
Tue 10:56:28 AM 64.7840 -22.9320 259° West 434 499 36,000  Level FlightAware ADS-B
Tue 10:57:06 AM 64.7690 -23.1060 259° West 434 499 36,000  Level FlightAware ADS-B
Tue 10:57:40 AM 64.7560 -23.2630 259° West 434 499 36,000  Level FlightAware ADS-B
Tue 10:58:13 AM 64.7430 -23.4130 259° West 435 501 36,000  Level FlightAware ADS-B
Tue 10:58:50 AM 64.7280 -23.5810 258° West 437 503 36,000  Level FlightAware ADS-B
Tue 10:59:25 AM 64.7130 -23.7460 258° West 438 504 36,000  Level FlightAware ADS-B
Tue 10:59:58 AM 64.6990 -23.9000 258° West 439 505 36,000  Level FlightAware ADS-B
Tue 11:00:36 AM 64.6830 -24.0750 258° West 440 506 36,000  Level FlightAware ADS-B
Tue 11:01:08 AM 64.6690 -24.2210 257° West 442 509 36,000  Level FlightAware ADS-B
Tue 11:01:42 AM 64.6550 -24.3760 258° West 443 510 36,000  Level FlightAware ADS-B
Tue 11:02:16 AM 64.6390 -24.5380 257° West 444 511 36,000  Level FlightAware ADS-B
Tue 11:02:54 AM 64.6220 -24.7200 258° West 445 512 36,000  Level FlightAware ADS-B
Tue 11:03:28 AM 64.6060 -24.8780 257° West 445 512 36,000  Level FlightAware ADS-B
Tue 11:04:04 AM 64.5900 -25.0440 257° West 445 512 36,000  Level FlightAware ADS-B
Tue 11:04:40 AM 64.5730 -25.2120 257° West 445 512 36,000  Level FlightAware ADS-B
Tue 11:05:16 AM 64.5560 -25.3790 257° West 446 513 36,000  Level FlightAware ADS-B
Tue 11:05:47 AM 64.5410 -25.5210 256° West 446 513 36,000  Level FlightAware ADS-B
Tue 11:06:22 AM 64.5250 -25.6780 257° West 446 513 36,000  Level FlightAware ADS-B
Tue 11:07:00 AM 64.5060 -25.8630 257° West 448 516 36,000  Level FlightAware ADS-B
Tue 11:07:32 AM 64.4900 -26.0130 256° West 450 518 36,000  Level FlightAware ADS-B
Tue 11:08:09 AM 64.4710 -26.1820 255° West 450 518 36,000  Level FlightAware ADS-B
Tue 11:08:42 AM 64.4540 -26.3380 256° West 450 518 36,000  Level FlightAware ADS-B
Tue 11:09:18 AM 64.4360 -26.5040 256° West 450 518 36,000  Level FlightAware ADS-B
Tue 11:09:54 AM 64.4170 -26.6750 256° West 450 518 36,000  Level FlightAware ADS-B
Tue 11:10:28 AM 64.3990 -26.8330 255° West 451 519 36,000  Level FlightAware ADS-B
Tue 11:11:01 AM 64.3820 -26.9810 255° West 452 520 36,000  Level FlightAware ADS-B
Tue 11:12:06 AM 64.3480 -27.2800 255° West 453 521 36,000  Level FlightAware ADS-B
Tue 11:12:38 AM 64.3290 -27.4380 255° West 454 522 36,000  Level FlightAware ADS-B
Tue 11:13:14 AM 64.3110 -27.5910 255° West 454 522 36,000  Level FlightAware ADS-B
Tue 11:13:50 AM 64.2900 -27.7690 255° West 454 522 36,000  Level FlightAware ADS-B
Tue 11:14:27 AM 64.2700 -27.9340 254° West 454 522 36,000  Level FlightAware ADS-B
Tue 11:15:00 AM 64.2500 -28.0950 254° West 454 522 36,000  Level FlightAware ADS-B
Tue 11:15:32 AM 64.2310 -28.2420 254° West 454 522 36,000  Level FlightAware ADS-B
Tue 11:16:11 AM 64.2090 -28.4200 254° West 455 524 36,000  Level FlightAware ADS-B
Tue 11:16:46 AM 64.1880 -28.5850 254° West 457 526 36,000  Level FlightAware ADS-B
Tue 11:17:14 AM 64.1720 -28.7170 255° West 458 527 36,000  Level FlightAware ADS-B
Tue 11:17:47 AM 64.1520 -28.8660 253° West 460 529 36,000  Level FlightAware ADS-B
Tue 11:18:24 AM 64.1300 -29.0400 254° West 461 531 36,000  Level FlightAware ADS-B
Tue 11:18:58 AM 64.1090 -29.1990 253° West 462 532 36,000  Level FlightAware ADS-B
Tue 11:19:34 AM 64.0870 -29.3650 253° West 464 534 36,000  Level FlightAware ADS-B
Tue 11:20:06 AM 64.0660 -29.5150 252° West 465 535 36,000  Level FlightAware ADS-B
Tue 11:20:44 AM 64.0420 -29.6950 253° West 465 535 36,000  Level FlightAware ADS-B
Tue 11:21:18 AM 64.0210 -29.8530 253° West 466 536 36,000  Level FlightAware ADS-B
Tue 11:21:52 AM 63.9990 -30.0120 253° West 466 536 36,000  Level FlightAware ADS-B
Tue 11:22:40 AM 63.9650 -30.2340 251° West 466 536 36,000  Level FlightAware ADS-B
Tue 11:23:18 AM 63.9370 -30.4090 250° West 467 537 36,000  Level FlightAware ADS-B
Tue 11:23:50 AM 63.9140 -30.5570 251° West 467 537 36,000  Level FlightAware ADS-B
Tue 11:24:22 AM 63.8900 -30.7070 250° West 465 535 36,000  Level FlightAware ADS-B
Tue 11:25:02 AM 63.8610 -30.8900 250° West 465 535 36,000  Level FlightAware ADS-B
Tue 11:25:35 AM 63.8370 -31.0340 249° West 464 534 36,000  Level FlightAware ADS-B
Tue 11:26:12 AM 63.8100 -31.2030 250° West 463 533 36,000  Level FlightAware ADS-B
Tue 11:26:46 AM 63.7840 -31.3590 249° West 463 533 36,000  Level FlightAware ADS-B
Tue 11:27:22 AM 63.7570 -31.5200 249° West 463 533 36,000  Level FlightAware ADS-B
Tue 11:28:12 AM 63.7230 -31.7250 250° West 463 533 36,000  Level FlightAware ADS-B
Tue 11:28:50 AM 63.6980 -31.8710 249° West 463 533 36,000  Level FlightAware ADS-B
Tue 11:29:27 AM 63.6740 -32.0130 249° West 463 533 36,000  Level FlightAware ADS-B
Tue 11:30:01 AM 63.6520 -32.1430 249° West 463 533 36,000  Level FlightAware ADS-B
Tue 11:30:39 AM 63.6270 -32.2890 249° West 463 533 36,000  Level FlightAware ADS-B
Tue 11:31:16 AM 63.6030 -32.4300 249° West 463 533 36,000  Level FlightAware ADS-B
Tue 11:31:52 AM 63.5790 -32.5680 249° West 463 533 36,000  Level FlightAware ADS-B
Tue 11:32:28 AM 63.5560 -32.7050 249° West 463 533 36,000  Level FlightAware ADS-B
Tue 11:33:05 AM 63.5310 -32.8460 248° West 463 533 36,000  Level FlightAware ADS-B
Tue 11:33:41 AM 63.5080 -32.9830 249° West 463 533 36,000  Level FlightAware ADS-B
Tue 11:34:18 AM 63.4840 -33.1240 249° West 463 533 36,000  Level FlightAware ADS-B
Tue 11:34:57 AM 63.4580 -33.2730 249° West 463 533 36,000  Level FlightAware ADS-B
Tue 11:35:33 AM 63.4350 -33.4100 249° West 463 533 36,000  Level FlightAware ADS-B
Tue 11:36:09 AM 63.4110 -33.5460 249° West 463 533 36,000  Level FlightAware ADS-B
Tue 11:36:46 AM 63.3870 -33.6870 249° West 463 533 36,000  Level FlightAware ADS-B
Tue 11:37:22 AM 63.3640 -33.8230 249° West 463 533 36,000  Level FlightAware ADS-B
Tue 11:40:00 AM 63.2310 -34.4928 246° West  Level FlightAware Approximate
Tue 11:41:00 AM 63.1797 -34.7455 246° West  Level FlightAware Approximate
Tue 11:42:00 AM 63.1280 -34.9974 246° West  Level FlightAware Approximate
Tue 11:43:00 AM 63.0757 -35.2483 245° Southwest  Level FlightAware Approximate
Tue 11:44:00 AM 63.0231 -35.4983 245° Southwest  Level FlightAware Approximate
Tue 11:45:00 AM 62.9700 -35.7475 245° Southwest  Level FlightAware Approximate
Tue 11:46:00 AM 62.9165 -35.9957 245° Southwest  Level FlightAware Approximate
Tue 11:47:00 AM 62.8625 -36.2430 245° Southwest  Level FlightAware Approximate
Tue 11:48:00 AM 62.8096 -36.4913 245° Southwest  Level FlightAware Approximate
Tue 11:49:00 AM 62.7567 -36.7389 245° Southwest  Level FlightAware Approximate
Tue 11:50:00 AM 62.7034 -36.9855 245° Southwest  Level FlightAware Approximate
Tue 11:51:00 AM 62.6497 -37.2313 245° Southwest  Level FlightAware Approximate
Tue 11:52:00 AM 62.5956 -37.4762 244° Southwest  Level FlightAware Approximate
Tue 11:53:00 AM 62.5410 -37.7202 244° Southwest  Level FlightAware Approximate
Tue 11:54:00 AM 62.4860 -37.9633 244° Southwest  Level FlightAware Approximate
Tue 11:55:00 AM 62.4305 -38.2055 244° Southwest  Level FlightAware Approximate
Tue 11:56:00 AM 62.3747 -38.4468 244° Southwest  Level FlightAware Approximate
Tue 11:57:00 AM 62.3185 -38.6872 243° Southwest  Level FlightAware Approximate
Tue 11:58:00 AM 62.2618 -38.9267 243° Southwest  Level FlightAware Approximate
Tue 11:59:00 AM 62.2047 -39.1652 243° Southwest  Level FlightAware Approximate
Tue 12:00:00 PM 62.1472 -39.4029 243° Southwest  Level FlightAware Approximate
Tue 12:01:00 PM 62.0893 -39.6397 243° Southwest  Level FlightAware Approximate
Tue 12:02:00 PM 62.0310 -39.8756 242° Southwest  Level FlightAware Approximate
Tue 12:03:00 PM 61.9816 -40.1190 252° West  Level FlightAware Approximate
Tue 12:04:00 PM 61.9422 -40.3713 252° West  Level FlightAware Approximate
Tue 12:05:00 PM 61.9023 -40.6228 251° West  Level FlightAware Approximate
Tue 12:06:00 PM 61.8619 -40.8738 251° West  Level FlightAware Approximate
Tue 12:07:00 PM 61.8211 -41.1240 251° West  Level FlightAware Approximate
Tue 12:08:00 PM 61.7798 -41.3736 251° West  Level FlightAware Approximate
Tue 12:09:00 PM 61.7381 -41.6226 251° West  Level FlightAware Approximate
Tue 12:10:00 PM 61.6960 -41.8708 250° West  Level FlightAware Approximate
Tue 12:11:00 PM 61.6534 -42.1184 250° West  Level FlightAware Approximate
Tue 12:12:00 PM 61.6103 -42.3652 250° West  Level FlightAware Approximate
Tue 12:13:00 PM 61.5668 -42.6114 250° West  Level FlightAware Approximate
Tue 12:14:00 PM 61.5229 -42.8569 250° West  Level FlightAware Approximate
Tue 12:15:00 PM 61.4789 -43.1021 250° West  Level FlightAware Approximate
Tue 12:16:00 PM 61.4350 -43.3469 250° West  Level FlightAware Approximate
Tue 12:17:00 PM 61.3907 -43.5910 249° West  Level FlightAware Approximate
Tue 12:18:00 PM 61.3459 -43.8345 249° West  Level FlightAware Approximate
Tue 12:19:00 PM 61.3007 -44.0772 249° West  Level FlightAware Approximate
Tue 12:20:00 PM 61.2550 -44.3193 249° West  Level FlightAware Approximate
Tue 12:21:00 PM 61.2087 -44.5604 248° West  Level FlightAware Approximate
Tue 12:22:00 PM 61.1618 -44.8007 248° West  Level FlightAware Approximate
Tue 12:23:00 PM 61.1144 -45.0402 248° West  Level FlightAware Approximate
Tue 12:24:00 PM 61.0666 -45.2790 248° West  Level FlightAware Approximate
Tue 12:25:00 PM 61.0183 -45.5171 247° West  Level FlightAware Approximate
Tue 12:26:00 PM 60.9697 -45.7545 247° West  Level FlightAware Approximate
Tue 12:27:00 PM 60.9206 -45.9911 247° West  Level FlightAware Approximate
Tue 12:28:00 PM 60.8712 -46.2270 247° West  Level FlightAware Approximate
Tue 12:29:00 PM 60.8213 -46.4622 247° West  Level FlightAware Approximate
Tue 12:30:00 PM 60.7710 -46.6966 246° West  Level FlightAware Approximate
Tue 12:31:00 PM 60.7203 -46.9303 246° West  Level FlightAware Approximate
Tue 12:32:00 PM 60.6692 -47.1632 246° West  Level FlightAware Approximate
Tue 12:33:00 PM 60.6176 -47.3954 246° West  Level FlightAware Approximate
Tue 12:34:00 PM 60.5657 -47.6269 246° West  Level FlightAware Approximate
Tue 12:35:00 PM 60.5134 -47.8576 245° Southwest  Level FlightAware Approximate
Tue 12:36:00 PM 60.4607 -48.0876 245° Southwest  Level FlightAware Approximate
Tue 12:37:00 PM 60.4076 -48.3168 245° Southwest  Level FlightAware Approximate
Tue 12:38:00 PM 60.3541 -48.5453 245° Southwest  Level FlightAware Approximate
Tue 12:39:00 PM 60.3002 -48.7730 245° Southwest  Level FlightAware Approximate
Tue 12:40:00 PM 60.2459 -49.0000 244° Southwest  Level FlightAware Approximate
Tue 12:41:00 PM 60.1913 -49.2262 244° Southwest  Level FlightAware Approximate
Tue 12:42:00 PM 60.1362 -49.4517 244° Southwest  Level FlightAware Approximate
Tue 12:43:00 PM 60.0808 -49.6764 244° Southwest  Level FlightAware Approximate
Tue 12:44:00 PM 60.0250 -49.9004 244° Southwest  Level FlightAware Approximate
Tue 12:45:00 PM 59.9692 -50.1239 244° Southwest  Level FlightAware Approximate
Tue 12:46:00 PM 59.9133 -50.3470 244° Southwest  Level FlightAware Approximate
Tue 12:47:00 PM 59.8570 -50.5694 243° Southwest  Level FlightAware Approximate
Tue 12:48:00 PM 59.8003 -50.7909 243° Southwest  Level FlightAware Approximate
Tue 12:49:00 PM 59.7433 -51.0118 243° Southwest  Level FlightAware Approximate
Tue 12:50:00 PM 59.6858 -51.2318 243° Southwest  Level FlightAware Approximate
Tue 12:51:00 PM 59.6281 -51.4511 243° Southwest  Level FlightAware Approximate
Tue 12:52:00 PM 59.5699 -51.6697 242° Southwest  Level FlightAware Approximate
Tue 12:53:00 PM 59.5114 -51.8875 242° Southwest  Level FlightAware Approximate
Tue 12:54:00 PM 59.4526 -52.1046 242° Southwest  Level FlightAware Approximate
Tue 12:55:00 PM 59.3933 -52.3209 242° Southwest  Level FlightAware Approximate
Tue 12:56:00 PM 59.3338 -52.5364 242° Southwest  Level FlightAware Approximate
Tue 12:57:00 PM 59.2738 -52.7512 241° Southwest  Level FlightAware Approximate
Tue 12:58:00 PM 59.2135 -52.9652 241° Southwest  Level FlightAware Approximate
Tue 12:59:00 PM 59.1529 -53.1784 241° Southwest  Level FlightAware Approximate
Tue 01:00:00 PM 59.0919 -53.3909 241° Southwest  Level FlightAware Approximate
Tue 01:01:00 PM 59.0306 -53.6027 241° Southwest  Level FlightAware Approximate
Tue 01:02:00 PM 58.9689 -53.8137 241° Southwest  Level FlightAware Approximate
Tue 01:02:22 PM 58.6167 -54.8833 240° Southwest 460 529 36,000  Level Gander Center
Tue 01:03:00 PM 58.9069 -54.0239 240° Southwest  Level FlightAware Approximate
Tue 01:03:22 PM 58.5833 -55.0833 252° West 450 518 36,000  Level Gander Center
Tue 01:04:00 PM 58.8445 -54.2334 240° Southwest  Level FlightAware Approximate
Tue 01:04:22 PM 58.5000 -55.3167 236° Southwest 460 529 36,000  Level Gander Center
Tue 01:05:00 PM 58.7818 -54.4421 240° Southwest  Level FlightAware Approximate
Tue 01:05:22 PM 58.4333 -55.5167 238° Southwest 460 529 36,000  Level Gander Center
Tue 01:06:00 PM 58.7190 -54.6495 240° Southwest  Level FlightAware Approximate
Tue 01:06:22 PM 58.3500 -55.7167 232° Southwest 460 529 36,000  Level Gander Center
Tue 01:07:00 PM 58.6558 -54.8562 240° Southwest  Level FlightAware Approximate
Tue 01:07:22 PM 58.3167 -55.9500 255° West 460 529 36,000  Level Gander Center
Tue 01:08:22 PM 58.2333 -56.1500 232° Southwest 460 529 36,000  Level Gander Center
Tue 01:09:22 PM 58.1667 -56.3500 238° Southwest 460 529 36,000  Level Gander Center
Tue 01:10:22 PM 58.1000 -56.5500 238° Southwest 470 541 36,000  Level Gander Center
Tue 01:11:22 PM 58.0333 -56.7833 242° Southwest 460 529 36,000  Level Gander Center
Tue 01:12:22 PM 57.9667 -56.9667 236° Southwest 460 529 36,000  Level Gander Center
Tue 01:13:22 PM 57.8833 -57.1667 232° Southwest 460 529 36,000  Level Gander Center
Tue 01:14:22 PM 57.8333 -57.3667 245° Southwest 460 529 36,000  Level Gander Center
Tue 01:15:22 PM 57.7500 -57.6000 236° Southwest 460 529 36,000  Level Gander Center
Tue 01:16:22 PM 57.6833 -57.7833 236° Southwest 460 529 36,000  Level Gander Center
Tue 01:17:22 PM 57.6167 -57.9833 238° Southwest 460 529 36,000  Level Gander Center
Tue 01:18:22 PM 57.5500 -58.1667 236° Southwest 460 529 36,000  Level Gander Center
Tue 01:19:22 PM 57.4667 -58.4000 236° Southwest 460 529 36,000  Level Gander Center
Tue 01:20:22 PM 57.4167 -58.5833 243° Southwest 460 529 36,000  Level Gander Center
Tue 01:21:22 PM 57.3333 -58.7833 232° Southwest 470 541 36,000  Level Gander Center
Tue 01:22:22 PM 57.2667 -59.0000 240° Southwest 470 541 36,000  Level Gander Center
Tue 01:23:22 PM 57.1667 -59.1667 222° Southwest 470 541 36,000  Level Gander Center
Tue 01:24:22 PM 57.0667 -59.2833 212° Southwest 460 529 36,000  Level Gander Center
Tue 01:25:22 PM 56.9667 -59.4167 216° Southwest 450 518 36,000  Level Gander Center
Tue 01:26:22 PM 56.8500 -59.5500 212° Southwest 450 518 36,000  Level Gander Center
Tue 01:27:22 PM 56.7667 -59.6667 218° Southwest 450 518 36,000  Level Gander Center
Tue 01:28:22 PM 56.6500 -59.8000 212° Southwest 450 518 36,000  Level Gander Center
Tue 01:29:22 PM 56.5333 -59.8833 202° Southwest 450 518 36,000  Level Gander Center
Tue 01:30:22 PM 56.4167 -60.0167 212° Southwest 460 529 36,000  Level Gander Center
Tue 01:31:22 PM 56.3167 -60.1333 213° Southwest 450 518 36,000  Level Gander Center
Tue 01:32:22 PM 56.2000 -60.2667 212° Southwest 460 529 36,000  Level Gander Center
Tue 01:33:22 PM 56.1000 -60.3500 205° Southwest 460 529 36,000  Level Gander Center
Tue 01:34:22 PM 55.9833 -60.4833 213° Southwest 460 529 36,000  Level Gander Center
Tue 01:35:22 PM 55.8667 -60.6000 209° Southwest 460 529 36,000  Level Gander Center
Tue 01:36:22 PM 55.7667 -60.7167 213° Southwest 460 529 36,000  Level Gander Center
Tue 01:37:22 PM 55.6500 -60.8333 209° Southwest 470 541 36,000  Level Gander Center
Tue 01:38:22 PM 55.5333 -60.9333 206° Southwest 460 529 36,000  Level Gander Center
Tue 01:39:22 PM 55.4167 -61.0500 210° Southwest 460 529 36,000  Level Gander Center
Tue 01:40:22 PM 55.3167 -61.1667 214° Southwest 460 529 36,000  Level Gander Center
Tue 01:41:22 PM 55.2000 -61.2833 210° Southwest 470 541 36,000  Level Gander Center
Tue 01:42:22 PM 55.0833 -61.4000 210° Southwest 460 529 36,000  Level Gander Center
Tue 01:43:22 PM 54.9833 -61.4833 206° Southwest 470 541 36,000  Level Gander Center
Tue 01:44:22 PM 54.8667 -61.6000 210° Southwest 470 541 36,000  Level Gander Center
Tue 01:45:22 PM 54.7500 -61.7167 210° Southwest 460 529 36,000  Level Gander Center
Tue 01:46:22 PM 54.6333 -61.8333 210° Southwest 470 541 36,000  Level Gander Center
Tue 01:47:22 PM 54.5333 -61.9500 214° Southwest 470 541 36,000  Level Gander Center
Tue 01:48:22 PM 54.4167 -62.0500 207° Southwest 470 541 36,000  Level Gander Center
Tue 01:49:22 PM 54.3000 -62.1667 210° Southwest 470 541 36,000  Level Gander Center
Tue 01:50:22 PM 54.1833 -62.2833 210° Southwest 470 541 36,000  Level Gander Center
Tue 01:51:22 PM 54.0667 -62.3667 203° Southwest 470 541 36,000  Level Gander Center
Tue 01:52:22 PM 53.9667 -62.4833 214° Southwest 470 541 36,000  Level Gander Center
Tue 01:53:22 PM 53.8333 -62.5833 204° Southwest 460 529 36,000  Level Gander Center
Tue 01:54:22 PM 53.7167 -62.7000 211° Southwest 460 529 36,000  Level Gander Center
Tue 01:55:22 PM 53.6000 -62.8000 207° Southwest 460 529 36,000  Level Gander Center
Tue 01:57:22 PM 53.3833 -63.0000 209° Southwest 470 541 36,000  Level Gander Center
Tue 01:59:22 PM 53.1500 -63.2000 207° Southwest 470 541 36,000  Level Gander Center
Tue 02:01:34 PM 52.9000 -63.4333 209° Southwest 470 541 36,000  Level Moncton Center
Tue 02:02:34 PM 52.7833 -63.5333 207° Southwest 470 541 36,000  Level Moncton Center
Tue 02:03:34 PM 52.6667 -63.6167 203° Southwest 470 541 36,000  Level Moncton Center
Tue 02:04:34 PM 52.5500 -63.7333 211° Southwest 470 541 36,000  Level Moncton Center
Tue 02:05:34 PM 52.4333 -63.8167 204° Southwest 470 541 36,000  Level Moncton Center
Tue 02:06:34 PM 52.3167 -63.9333 211° Southwest 470 541 36,000  Level Moncton Center
Tue 02:07:34 PM 52.2000 -64.0500 212° Southwest 470 541 36,000  Level Moncton Center
Tue 02:08:34 PM 52.0833 -64.1167 199° South 470 541 36,000  Level Moncton Center
Tue 02:09:34 PM 51.9667 -64.2333 212° Southwest 470 541 36,000  Level Moncton Center
Tue 02:10:34 PM 51.8500 -64.3500 212° Southwest 480 552 36,000  Level Moncton Center
Tue 02:11:34 PM 51.7333 -64.4167 199° South 470 541 36,000  Level Moncton Center
Tue 02:12:34 PM 51.6167 -64.5333 212° Southwest 470 541 36,000  Level Moncton Center
Tue 02:13:34 PM 51.5000 -64.6167 204° Southwest 480 552 36,000  Level Moncton Center
Tue 02:14:34 PM 51.3833 -64.7167 208° Southwest 480 552 36,000  Level Moncton Center
Tue 02:15:34 PM 51.2667 -64.8167 208° Southwest 480 552 36,000  Level Moncton Center
Tue 02:16:34 PM 51.1333 -64.9000 201° Southwest 480 552 36,000  Level Moncton Center
Tue 02:17:34 PM 51.0333 -65.0167 216° Southwest 470 541 36,000  Level Moncton Center
Tue 02:18:34 PM 50.9167 -65.0833 200° South 470 541 36,000  Level Moncton Center
Tue 02:24:30 PM 50.2070 -65.6560 200° South 474 545 36,000  Level FlightAware ADS-B
Tue 02:25:05 PM 50.1390 -65.7080 206° Southwest 473 544 36,000  Level FlightAware ADS-B
Tue 02:25:42 PM 50.0680 -65.7620 206° Southwest 473 544 36,000  Level FlightAware ADS-B
Tue 02:26:09 PM 50.0190 -65.8000 206° Southwest 474 545 36,000  Level FlightAware ADS-B
Tue 02:26:57 PM 49.9330 -65.8650 206° Southwest 474 545 36,000  Level FlightAware ADS-B
Tue 02:27:54 PM 49.8190 -65.9510 206° Southwest 474 545 36,000  Level FlightAware ADS-B
Tue 02:28:27 PM 49.7460 -66.0060 206° Southwest 473 544 36,000  Level FlightAware ADS-B
Tue 02:29:05 PM 49.6690 -66.0630 206° Southwest 473 544 36,000  Level FlightAware ADS-B
Tue 02:29:40 PM 49.6020 -66.1130 206° Southwest 472 543 36,000  Level FlightAware ADS-B
Tue 02:30:13 PM 49.5370 -66.1620 206° Southwest 472 543 36,000  Level FlightAware ADS-B
Tue 02:30:47 PM 49.4680 -66.2130 206° Southwest 473 544 36,000  Level FlightAware ADS-B
Tue 02:31:20 PM 49.4040 -66.2610 206° Southwest 472 543 36,000  Level FlightAware ADS-B
Tue 02:31:57 PM 49.3310 -66.3140 205° Southwest 473 544 36,000  Level FlightAware ADS-B
Tue 02:32:36 PM 49.2540 -66.3710 206° Southwest 472 543 36,000  Level FlightAware ADS-B
Tue 02:33:09 PM 49.1900 -66.4170 205° Southwest 472 543 36,000  Level FlightAware ADS-B
Tue 02:33:43 PM 49.1220 -66.4670 206° Southwest 472 543 36,000  Level FlightAware ADS-B
Tue 02:34:20 PM 49.0530 -66.5180 206° Southwest 472 543 36,000  Level FlightAware ADS-B
Tue 02:34:51 PM 48.9880 -66.5640 205° Southwest 471 542 36,000  Level FlightAware ADS-B
Tue 02:35:30 PM 48.9150 -66.6180 206° Southwest 470 541 36,000  Level FlightAware ADS-B
Tue 02:36:02 PM 48.8490 -66.6650 205° Southwest 469 540 36,000  Level FlightAware ADS-B
Tue 02:36:37 PM 48.7810 -66.7140 205° Southwest 468 539 36,000  Level FlightAware ADS-B
Tue 02:37:15 PM 48.7060 -66.7670 205° Southwest 466 536 36,000  Level FlightAware ADS-B
Tue 02:37:48 PM 48.6420 -66.8130 205° Southwest 466 536 36,000  Level FlightAware ADS-B
Tue 02:38:21 PM 48.5790 -66.8590 206° Southwest 465 535 36,000  Level FlightAware ADS-B
Tue 02:38:58 PM 48.5060 -66.9100 205° Southwest 465 535 36,000  Level FlightAware ADS-B
Tue 02:39:32 PM 48.4400 -66.9570 205° Southwest 466 536 36,000  Level FlightAware ADS-B
Tue 02:40:11 PM 48.3630 -67.0110 205° Southwest 465 535 36,000  Level FlightAware ADS-B
Tue 02:40:44 PM 48.3000 -67.0560 205° Southwest 464 534 36,000  Level FlightAware ADS-B
Tue 02:41:21 PM 48.2280 -67.1060 205° Southwest 463 533 36,000  Level FlightAware ADS-B
Tue 02:41:51 PM 48.1700 -67.1470 205° Southwest 463 533 36,000  Level FlightAware ADS-B
Tue 02:42:28 PM 48.1010 -67.1960 205° Southwest 462 532 36,000  Level FlightAware ADS-B
Tue 02:43:04 PM 48.0290 -67.2460 205° Southwest 463 533 36,000  Level FlightAware ADS-B
Tue 02:43:36 PM 47.9650 -67.2890 204° Southwest 463 533 36,000  Level FlightAware ADS-B
Tue 02:44:14 PM 47.8940 -67.3390 205° Southwest 462 532 36,000  Level FlightAware ADS-B
Tue 02:45:02 PM 47.8010 -67.4030 205° Southwest 461 531 36,000  Level FlightAware ADS-B
Tue 02:45:38 PM 47.7310 -67.4510 205° Southwest 462 532 36,000  Level FlightAware ADS-B
Tue 02:46:11 PM 47.6670 -67.4950 205° Southwest 462 532 36,000  Level FlightAware ADS-B
Tue 02:46:39 PM 47.6130 -67.5320 205° Southwest 463 533 36,000  Level FlightAware ADS-B
Tue 02:47:00 PM 47.5711 -67.5605 205° Southwest 463 533 36,000  Level FlightAware ADS-B
Tue 02:47:36 PM 47.5008 -67.6083 205° Southwest 462 532 36,000  Level FlightAware ADS-B
Tue 02:48:08 PM 47.4395 -67.6499 205° Southwest 462 532 36,000  Level FlightAware ADS-B
Tue 02:48:58 PM 47.3420 -67.7159 205° Southwest 461 531 36,000  Level FlightAware ADS-B
Tue 02:49:31 PM 47.2776 -67.7593 205° Southwest 461 531 36,000  Level FlightAware ADS-B
Tue 02:50:12 PM 47.2038 -67.8089 205° Southwest 460 529 36,000  Level FlightAware ADS-B
Tue 02:50:43 PM 47.1436 -67.8493 205° Southwest 461 531 36,000  Level FlightAware ADS-B
Tue 02:51:14 PM 47.0800 -67.8920 205° Southwest 460 529 36,000  Level FlightAware ADS-B
Tue 02:51:23 PM 47.0615 -67.9042 204° Southwest 461 531 36,000  Level FlightAware ADS-B
Tue 02:51:57 PM 46.9993 -67.9456 204° Southwest 461 531 36,000  Level FlightAware ADS-B
Tue 02:52:52 PM 46.8914 -68.0173 204° Southwest 461 531 36,000  Level FlightAware ADS-B
Tue 02:53:31 PM 46.8154 -68.0676 204° Southwest 461 531 36,000  Level FlightAware ADS-B
Tue 02:54:05 PM 46.7451 -68.1053 200° South 468 539 36,000  Level FlightAware ADS-B
Tue 02:54:41 PM 46.6704 -68.1358 196° South 468 539 36,000  Level FlightAware ADS-B
Tue 02:55:18 PM 46.6016 -68.1661 197° South 468 539 36,000  Level FlightAware ADS-B
Tue 02:55:58 PM 46.5115 -68.2040 196° South 469 540 36,000  Level FlightAware ADS-B
Tue 02:56:31 PM 46.4432 -68.2323 196° South 469 540 36,000  Level FlightAware ADS-B
Tue 02:57:10 PM 46.3658 -68.2642 196° South 470 541 36,000  Level FlightAware ADS-B
Tue 02:57:44 PM 46.2914 -68.2947 196° South 470 541 36,000  Level FlightAware ADS-B
Tue 02:58:23 PM 46.2095 -68.3283 196° South 470 541 36,000  Level FlightAware ADS-B
Tue 02:58:56 PM 46.1404 -68.3566 196° South 470 541 36,000  Level FlightAware ADS-B
Tue 02:59:26 PM 46.0763 -68.3827 196° South 469 540 36,000  Level FlightAware ADS-B
Tue 03:00:08 PM 45.9904 -68.4176 196° South 467 537 36,000  Level FlightAware ADS-B
Tue 03:00:40 PM 45.9254 -68.4439 196° South 466 536 36,000  Level FlightAware ADS-B
Tue 03:01:22 PM 45.8395 -68.4787 196° South 468 539 36,000  Level FlightAware ADS-B
Tue 03:01:52 PM 45.7797 -68.5028 196° South 468 539 36,000  Level FlightAware ADS-B
Tue 03:02:22 PM 45.7170 -68.5280 196° South 468 539 36,000  Level FlightAware ADS-B
Tue 03:02:35 PM 45.6837 -68.5414 196° South 469 540 36,000  Level FlightAware ADS-B
Tue 03:03:06 PM 45.6200 -68.5669 196° South 470 541 36,000  Level FlightAware ADS-B
Tue 03:03:49 PM 45.5295 -68.6031 196° South 471 542 36,000  Level FlightAware ADS-B
Tue 03:04:28 PM 45.4513 -68.6343 196° South 471 542 36,000  Level FlightAware ADS-B
Tue 03:05:02 PM 45.3811 -68.6622 196° South 471 542 36,000  Level FlightAware ADS-B
Tue 03:05:41 PM 45.3081 -68.6911 196° South 471 542 36,000  Level FlightAware ADS-B
Tue 03:06:14 PM 45.2258 -68.7235 196° South 470 541 36,000  Level FlightAware ADS-B
Tue 03:06:44 PM 45.1655 -68.7473 196° South 470 541 36,000  Level FlightAware ADS-B
Tue 03:07:15 PM 45.1067 -68.7705 196° South 470 541 36,000  Level FlightAware ADS-B
Tue 03:07:46 PM 45.0358 -68.7983 196° South 469 540 36,000  Level FlightAware ADS-B
Tue 03:08:22 PM 44.9655 -68.8258 195° South 468 539 36,000  Level FlightAware ADS-B
Tue 03:08:55 PM 44.8948 -68.8534 195° South 467 537 36,000  Level FlightAware ADS-B
Tue 03:09:07 PM 44.8662 -68.8653 196° South 466 536 36,000  Level FlightAware ADS-B
Tue 03:09:25 PM 44.8282 -68.8842 199° South 464 534 36,000  Level FlightAware ADS-B (EGCB)
Tue 03:09:55 PM 44.7733 -68.9189 204° Southwest 462 532 36,000  Level FlightAware ADS-B (EGCB)
Tue 03:10:25 PM 44.7127 -68.9615 207° Southwest 462 532 36,000  Level FlightAware ADS-B (EGCB)
Tue 03:10:41 PM 44.7054 -68.9667 207° Southwest 462 532 36,000  Level FlightAware ADS-B
Tue 03:11:16 PM 44.6151 -69.0289 206° Southwest 462 532 36,000  Level FlightAware ADS-B (EGCB)
Tue 03:11:47 PM 44.5560 -69.0690 206° Southwest 462 532 36,000  Level FlightAware ADS-B
Tue 03:12:18 PM 44.4969 -69.1090 206° Southwest 463 533 36,000  Level FlightAware ADS-B
Tue 03:12:54 PM 44.4263 -69.1567 206° Southwest 462 532 36,000  Level FlightAware ADS-B (EGCB)
Tue 03:13:25 PM 44.3669 -69.1966 206° Southwest 461 531 36,000  Level FlightAware ADS-B (EGCB)
Tue 03:13:55 PM 44.3120 -69.2335 206° Southwest 461 531 36,000  Level FlightAware ADS-B
Tue 03:14:26 PM 44.2503 -69.2749 206° Southwest 461 531 36,000  Level FlightAware ADS-B (EGCB)
Tue 03:15:00 PM 44.2016 -69.3074 206° Southwest 460 529 36,000  Level FlightAware ADS-B
Tue 03:15:36 PM 44.1160 -69.3650 206° Southwest 459 528 36,000  Level FlightAware ADS-B
Tue 03:15:49 PM 44.0923 -69.3806 205° Southwest 459 528 36,000  Level FlightAware ADS-B
Tue 03:16:19 PM 44.0368 -69.4175 206° Southwest 458 527 36,000  Level FlightAware ADS-B
Tue 03:16:51 PM 43.9742 -69.4591 206° Southwest 458 527 36,000  Level FlightAware ADS-B
Tue 03:17:29 PM 43.9156 -69.4979 206° Southwest 457 526 36,000  Level FlightAware ADS-B
Tue 03:18:03 PM 43.8360 -69.5500 205° Southwest 454 522 36,000  Level FlightAware ADS-B
Tue 03:18:12 PM 43.8197 -69.5613 207° Southwest 453 521 36,000  Level FlightAware ADS-B
Tue 03:18:51 PM 43.7483 -69.6082 205° Southwest 453 521 36,000  Level FlightAware ADS-B
Tue 03:19:23 PM 43.6987 -69.6407 205° Southwest 454 522 36,000  Level FlightAware ADS-B
Tue 03:19:59 PM 43.6207 -69.6919 205° Southwest 455 524 36,000  Level FlightAware ADS-B
Tue 03:20:33 PM 43.5603 -69.7313 205° Southwest 455 524 36,000  Level FlightAware ADS-B
Tue 03:21:07 PM 43.4873 -69.7789 205° Southwest 455 524 36,000  Level FlightAware ADS-B
Tue 03:21:39 PM 43.4274 -69.8119 202° Southwest 455 524 36,000  Level FlightAware ADS-B
Tue 03:22:12 PM 43.3579 -69.8370 195° South 457 526 36,000  Level FlightAware ADS-B
Tue 03:22:44 PM 43.2923 -69.8508 189° South 458 527 36,000  Level FlightAware ADS-B
Tue 03:23:24 PM 43.2099 -69.8644 187° South 457 526 36,000  Level FlightAware ADS-B
Tue 03:24:04 PM 43.1230 -69.8785 187° South 458 527 36,000  Level FlightAware ADS-B
Tue 03:24:35 PM 43.0613 -69.8877 186° South 456 525 36,000  Level FlightAware ADS-B
Tue 03:25:31 PM 42.9410 -69.9050 186° South 454 522 36,000  Level FlightAware ADS-B
Tue 03:26:08 PM 42.8630 -69.9160 186° South 455 524 36,000  Level FlightAware ADS-B
Tue 03:26:12 PM 42.8937 -69.9121 North 456 525 36,000  Level FlightAware ADS-B
Tue 03:27:17 PM 42.7200 -69.9372 186° South 459 528 36,000  Level FlightAware ADS-B
Tue 03:27:53 PM 42.6450 -69.9480 186° South 460 529 36,000  Level FlightAware ADS-B
Tue 03:27:56 PM 42.6397 -69.9487 186° South 462 532 36,000  Level FlightAware ADS-B
Tue 03:28:28 PM 42.5680 -69.9590 186° South 461 531 36,000  Level FlightAware ADS-B
Tue 03:28:47 PM 42.5311 -69.9644 186° South 462 532 36,000  Level FlightAware ADS-B
Tue 03:29:35 PM 42.4250 -69.9800 186° South 461 531 36,000  Level FlightAware ADS-B
Tue 03:30:10 PM 42.3520 -69.9900 186° South 461 531 36,000  Level FlightAware ADS-B
Tue 03:30:48 PM 42.2710 -70.0020 186° South 462 532 36,000  Level FlightAware ADS-B
Tue 03:31:21 PM 42.2000 -70.0130 187° South 462 532 36,000  Level FlightAware ADS-B
Tue 03:31:58 PM 42.1240 -70.0380 194° South 462 532 36,000  Level FlightAware ADS-B
Tue 03:32:32 PM 42.0570 -70.0730 201° Southwest 460 529 36,000  Level FlightAware ADS-B
Tue 03:33:05 PM 41.9950 -70.1180 208° Southwest 458 527 36,000  Level FlightAware ADS-B
Tue 03:33:43 PM 41.9310 -70.1780 215° Southwest 455 524 36,000  Level FlightAware ADS-B
Tue 03:34:16 PM 41.8780 -70.2430 222° Southwest 455 524 36,000  Level FlightAware ADS-B
Tue 03:34:54 PM 41.8270 -70.3170 227° Southwest 455 524 36,000  Level FlightAware ADS-B
Tue 03:35:26 PM 41.7790 -70.3870 227° Southwest 455 524 36,000  Level FlightAware ADS-B
Tue 03:36:01 PM 41.7290 -70.4590 227° Southwest 453 521 36,000  Level FlightAware ADS-B
Tue 03:36:37 PM 41.6770 -70.5350 228° Southwest 452 520 36,000  Level FlightAware ADS-B
Tue 03:37:14 PM 41.6280 -70.6050 227° Southwest 451 519 36,000  Level FlightAware ADS-B
Tue 03:37:44 PM 41.5820 -70.6730 228° Southwest 452 520 36,000  Level FlightAware ADS-B
Tue 03:38:21 PM 41.5300 -70.7480 227° Southwest 453 521 36,000  Level FlightAware ADS-B
Tue 03:38:56 PM 41.4800 -70.8190 227° Southwest 453 521 36,000  Level FlightAware ADS-B
Tue 03:39:33 PM 41.4280 -70.8940 227° Southwest 453 521 36,000  Level FlightAware ADS-B
Tue 03:40:06 PM 41.3810 -70.9610 227° Southwest 454 522 36,000  Level FlightAware ADS-B
Tue 03:40:41 PM 41.3310 -71.0320 227° Southwest 453 521 36,000  Level FlightAware ADS-B
Tue 03:41:16 PM 41.2840 -71.1080 231° Southwest 452 520 36,000  Level FlightAware ADS-B
Tue 03:41:52 PM 41.2450 -71.1910 238° Southwest 453 521 36,000  Level FlightAware ADS-B
Tue 03:42:27 PM 41.2140 -71.2830 246° West 453 521 36,000  Level FlightAware ADS-B
Tue 03:43:04 PM 41.1870 -71.3790 250° West 456 525 36,000  Level FlightAware ADS-B
Tue 03:43:36 PM 41.1640 -71.4630 250° West 456 525 36,000  Level FlightAware ADS-B
Tue 03:44:13 PM 41.1414 -71.5422 249° West 458 527 36,000  Level FlightAware ADS-B (KSNC)
Tue 03:44:48 PM 41.1100 -71.6520 249° West 460 529 36,000  Level FlightAware ADS-B
Tue 03:45:23 PM 41.0845 -71.7428 250° West 463 533 36,000  Level FlightAware ADS-B (KSNC)
Tue 03:45:56 PM 41.0682 -71.7999 249° West 465 535 36,000  Level FlightAware ADS-B (KSNC)
Tue 03:46:30 PM 41.0330 -71.9220 249° West 464 534 36,000  Level FlightAware ADS-B
Tue 03:46:44 PM 41.0224 -71.9593 249° West 464 534 36,000  Level FlightAware ADS-B (KSNC)
Tue 03:47:23 PM 40.9924 -72.0638 249° West 468 539 36,000  Level FlightAware ADS-B (KSNC)
Tue 03:48:07 PM 40.9582 -72.1767 248° West 470 541 36,000  Level FlightAware ADS-B (KSNC)
Tue 03:48:37 PM 40.9253 -72.2556 241° Southwest 474 545 36,000  Level FlightAware ADS-B (KSNC)
Tue 03:49:15 PM 40.8770 -72.3448 234° Southwest 479 551 36,000  Level FlightAware ADS-B (KSNC)
Tue 03:49:47 PM 40.8295 -72.4133 227° Southwest 479 551 36,000  Level FlightAware ADS-B (KSNC)
Tue 03:50:17 PM 40.7801 -72.4714 222° Southwest 481 554 36,000  Level FlightAware ADS-B (KSNC)
Tue 03:50:57 PM 40.7156 -72.5477 222° Southwest 481 554 36,000  Level FlightAware ADS-B (KSNC)
Tue 03:51:36 PM 40.6507 -72.6281 223° Southwest 481 554 36,000  Level FlightAware ADS-B (KSNC)
Tue 03:52:11 PM 40.5919 -72.6958 221° Southwest 481 554 36,000  Level FlightAware ADS-B (KSNC)
Tue 03:52:45 PM 40.5342 -72.7615 221° Southwest 481 554 36,000  Level FlightAware ADS-B (KSNC)
Tue 03:53:16 PM 40.4846 -72.8181 221° Southwest 480 552 36,000  Level FlightAware ADS-B (KSNC)
Tue 03:53:49 PM 40.4278 -72.8828 221° Southwest 480 552 36,000  Level FlightAware ADS-B (KSNC)
Tue 03:54:20 PM 40.3767 -72.9410 221° Southwest 480 552 36,000  Level FlightAware ADS-B (KSNC)
Tue 03:55:03 PM 40.3040 -73.0236 221° Southwest 479 551 36,000  Level FlightAware ADS-B (KSNC)
Tue 03:55:34 PM 40.2526 -73.0820 221° Southwest 479 551 36,000  Level FlightAware ADS-B (KSNC)
Tue 03:56:14 PM 40.1864 -73.1569 221° Southwest 476 548 36,000  Level FlightAware ADS-B (KSNC)
Tue 03:56:52 PM 40.1225 -73.2290 221° Southwest 476 548 36,000  Level FlightAware ADS-B (KSNC)
Tue 03:57:22 PM 40.0887 -73.2670 221° Southwest 475 547 36,000  Level FlightAware ADS-B (KSNC)
Tue 03:57:54 PM 40.0231 -73.3407 221° Southwest 475 547 36,000  Level FlightAware ADS-B (KSNC)
Tue 03:59:01 PM 39.9090 -73.4680 221° Southwest 477 549 36,000  Level FlightAware ADS-B
Tue 03:59:12 PM 39.8893 -73.4902 221° Southwest 479 551 36,000  Level FlightAware ADS-B (KSNC)
Tue 04:00:10 PM 39.7920 -73.5990 221° Southwest 481 554 36,000  Level FlightAware ADS-B
Tue 04:00:20 PM 39.7776 -73.6147 220° Southwest 482 555 36,000  Level FlightAware ADS-B (KSNC)
Tue 04:00:58 PM 39.7094 -73.6904 221° Southwest 482 555 36,000  Level FlightAware ADS-B (KSNC)
Tue 04:01:43 PM 39.6352 -73.7725 220° Southwest 482 555 36,000  Level FlightAware ADS-B (KSNC)
Tue 04:02:30 PM 39.5560 -73.8600 220° Southwest 482 555 36,000  Level FlightAware ADS-B
Tue 04:02:45 PM 39.5134 -73.9067 220° Southwest 476 548 36,000  Level FlightAware ADS-B (KMTJ)
Tue 04:03:42 PM 39.4330 -73.9930 220° Southwest 485 558 36,000  Level FlightAware ADS-B
Tue 04:04:17 PM 39.3680 -74.0500 214° Southwest 488 562 36,000  Level FlightAware ADS-B
Tue 04:04:52 PM 39.3030 -74.1010 211° Southwest 490 564 36,000  Level FlightAware ADS-B
Tue 04:05:33 PM 39.2190 -74.1690 212° Southwest 491 565 36,000  Level FlightAware ADS-B
Tue 04:06:10 PM 39.1530 -74.2230 212° Southwest 484 557 36,000  Level FlightAware ADS-B
Tue 04:06:51 PM 39.0740 -74.2880 213° Southwest 483 556 36,000  Level FlightAware ADS-B
Tue 04:07:25 PM 39.0090 -74.3410 212° Southwest 482 555 36,000  Level FlightAware ADS-B
Tue 04:08:00 PM 38.9390 -74.3980 212° Southwest 481 554 36,000  Level FlightAware ADS-B
Tue 04:08:35 PM 38.8740 -74.4500 212° Southwest 481 554 36,000  Level FlightAware ADS-B
Tue 04:09:11 PM 38.8070 -74.5050 213° Southwest 480 552 36,000  Level FlightAware ADS-B
Tue 04:09:45 PM 38.7400 -74.5590 212° Southwest 479 551 36,000  Level FlightAware ADS-B
Tue 04:10:25 PM 38.6670 -74.6180 212° Southwest 478 550 36,000  Level FlightAware ADS-B
Tue 04:11:00 PM 38.5970 -74.6750 212° Southwest 478 550 36,000  Level FlightAware ADS-B
Tue 04:11:40 PM 38.5230 -74.7340 212° Southwest 479 551 36,000  Level FlightAware ADS-B
Tue 04:12:10 PM 38.4650 -74.7810 212° Southwest 479 551 36,000  Level FlightAware ADS-B
Tue 04:12:45 PM 38.3980 -74.8340 212° Southwest 479 551 36,000  Level FlightAware ADS-B
Tue 04:13:20 PM 38.3320 -74.8870 212° Southwest 478 550 36,000  Level FlightAware ADS-B
Tue 04:13:55 PM 38.2650 -74.9410 212° Southwest 479 551 36,000  Level FlightAware ADS-B
Tue 04:14:35 PM 38.1910 -74.9990 212° Southwest 481 554 36,000  Level FlightAware ADS-B
Tue 04:15:05 PM 38.1330 -75.0460 213° Southwest 489 563 36,000  Level FlightAware ADS-B
Tue 04:15:41 PM 38.0640 -75.1000 212° Southwest 491 565 36,000  Level FlightAware ADS-B
Tue 04:16:20 PM 37.9850 -75.1630 212° Southwest 496 571 36,000  Level FlightAware ADS-B
Tue 04:16:55 PM 37.9220 -75.2120 212° Southwest 497 572 36,000  Level FlightAware ADS-B
Tue 04:17:25 PM 37.8590 -75.2630 213° Southwest 488 562 36,000  Level FlightAware ADS-B
Tue 04:18:00 PM 37.8020 -75.3220 219° Southwest 480 552 36,000  Level FlightAware ADS-B
Tue 04:18:35 PM 37.7420 -75.3870 221° Southwest 485 558 36,000  Level FlightAware ADS-B
Tue 04:19:15 PM 37.6720 -75.4640 221° Southwest 487 560 36,000  Level FlightAware ADS-B
Tue 04:19:45 PM 37.6210 -75.5190 221° Southwest 476 548 36,000  Level FlightAware ADS-B
Tue 04:20:20 PM 37.5650 -75.5800 221° Southwest 474 545 36,000  Level FlightAware ADS-B
Tue 04:20:40 PM 37.5270 -75.6150 216° Southwest 486 559 36,000  Level FlightAware ADS-B
Tue 04:21:10 PM 37.4660 -75.6550 207° Southwest 484 557 36,000  Level FlightAware ADS-B
Tue 04:21:55 PM 37.3820 -75.7220 212° Southwest 474 545 36,000  Level FlightAware ADS-B
Tue 04:22:35 PM 37.3030 -75.7820 211° Southwest 485 558 36,000  Level FlightAware ADS-B
Tue 04:23:10 PM 37.2370 -75.8310 211° Southwest 486 559 36,000  Level FlightAware ADS-B
Tue 04:23:55 PM 37.1510 -75.8940 210° Southwest 485 558 36,000  Level FlightAware ADS-B
Tue 04:24:30 PM 37.0820 -75.9450 211° Southwest 485 558 36,000  Level FlightAware ADS-B
Tue 04:25:01 PM 37.0250 -75.9870 210° Southwest 484 557 36,000  Level FlightAware ADS-B
Tue 04:25:35 PM 36.9580 -76.0360 210° Southwest 485 558 36,000  Level FlightAware ADS-B
Tue 04:26:16 PM 36.8810 -76.0930 211° Southwest 482 555 36,000  Level FlightAware ADS-B
Tue 04:27:13 PM 36.7820 -76.1650 210° Southwest 473 544 36,000  Level FlightAware ADS-B
Tue 04:27:50 PM 36.7220 -76.2080 210° Southwest 473 544 36,000  Level FlightAware ADS-B
Tue 04:28:24 PM 36.6670 -76.2470 210° Southwest 473 544 36,000  Level FlightAware ADS-B
Tue 04:29:01 PM 36.6080 -76.2900 210° Southwest 473 544 36,000  Level FlightAware ADS-B
Tue 04:29:37 PM 36.5500 -76.3320 210° Southwest 473 544 36,000  Level FlightAware ADS-B
Tue 04:30:10 PM 36.4340 -76.4170 211° Southwest 485 558 36,000  Level FlightAware ADS-B
Tue 04:30:40 PM 36.3730 -76.4610 210° Southwest 485 558 36,000  Level FlightAware ADS-B
Tue 04:31:22 PM 36.2910 -76.5200 210° Southwest 488 562 36,000  Level FlightAware ADS-B
Tue 04:32:11 PM 36.2040 -76.5820 210° Southwest 488 562 36,000  Level FlightAware ADS-B
Tue 04:32:45 PM 36.1280 -76.6370 210° Southwest 492 566 36,000  Level FlightAware ADS-B
Tue 04:33:15 PM 36.0710 -76.6780 210° Southwest 492 566 36,000  Level FlightAware ADS-B
Tue 04:33:52 PM 36.0020 -76.7270 210° Southwest 493 567 36,000  Level FlightAware ADS-B
Tue 04:34:48 PM 35.9040 -76.7970 210° Southwest 493 567 36,000  Level FlightAware ADS-B
Tue 04:35:25 PM 35.9030 -76.7980 219° Southwest 492 566 36,000  Level FlightAware ADS-B
Tue 04:36:19 PM 35.9010 -76.7990 202° Southwest 493 567 36,000  Level FlightAware ADS-B
Tue 04:36:56 PM 35.8390 -76.8430 210° Southwest 493 567 36,000  Level FlightAware ADS-B
Tue 04:37:33 PM 35.7770 -76.8870 210° Southwest 493 567 36,000  Level FlightAware ADS-B
Tue 04:38:08 PM 35.7180 -76.9290 210° Southwest 493 567 36,000  Level FlightAware ADS-B
Tue 04:38:41 PM 35.4580 -77.1110 210° Southwest 482 555 36,000  Level FlightAware ADS-B
Tue 04:39:23 PM 35.3880 -77.1600 210° Southwest 482 555 36,000  Level FlightAware ADS-B
Tue 04:39:59 PM 35.3290 -77.2020 210° Southwest 482 555 36,000  Level FlightAware ADS-B
Tue 04:40:37 PM 35.2670 -77.2460 210° Southwest 482 555 36,000  Level FlightAware ADS-B
Tue 04:41:04 PM 35.1525 -77.3243 209° Southwest 479 551 36,000  Level FlightAware ADS-B
Tue 04:41:44 PM 35.0756 -77.3777 210° Southwest 483 556 36,000  Level FlightAware ADS-B
Tue 04:42:24 PM 35.0089 -77.4240 210° Southwest 483 556 36,000  Level FlightAware ADS-B
Tue 04:42:54 PM 34.9411 -77.4708 210° Southwest 485 558 36,000  Level FlightAware ADS-B
Tue 04:43:24 PM 34.8799 -77.5130 209° Southwest 485 558 36,000 100 Level FlightAware ADS-B
Tue 04:43:54 PM 34.8229 -77.5523 210° Southwest 488 562 36,100 300 Climbing FlightAware ADS-B
Tue 04:44:24 PM 34.7643 -77.5926 209° Southwest 499 574 36,300 600 Climbing FlightAware ADS-B
Tue 04:44:54 PM 34.7038 -77.6343 209° Southwest 505 581 36,700 900 Climbing FlightAware ADS-B
Tue 04:45:24 PM 34.6413 -77.6770 209° Southwest 506 582 37,200 900 Climbing FlightAware ADS-B
Tue 04:45:54 PM 34.5778 -77.7204 209° Southwest 510 587 37,600 706 Climbing FlightAware ADS-B
Tue 04:46:32 PM 34.5009 -77.7729 209° Southwest 506 582 38,000 343 Climbing FlightAware ADS-B
Tue 04:47:04 PM 34.4377 -77.8159 209° Southwest 507 583 38,000  Level FlightAware ADS-B
Tue 04:48:01 PM 34.3430 -77.8670 204° Southwest 519 597 38,000  Level FlightAware ADS-B
Tue 04:48:22 PM 34.2599 -77.8977 197° South 523 602 38,000  Level FlightAware ADS-B
Tue 04:48:52 PM 34.1933 -77.9176 194° South 522 601 38,000  Level FlightAware ADS-B
Tue 04:49:24 PM 34.1177 -77.9416 195° South 520 598 38,000  Level FlightAware ADS-B
Tue 04:50:02 PM 34.0295 -77.9680 194° South 520 598 38,000  Level FlightAware ADS-B
Tue 04:50:57 PM 33.9240 -77.9990 194° South 519 597 38,000  Level FlightAware ADS-B
Tue 04:51:31 PM 33.8470 -78.0210 193° South 519 597 38,000  Level FlightAware ADS-B
Tue 04:52:06 PM 33.7660 -78.0440 193° South 520 598 38,000  Level FlightAware ADS-B
Tue 04:52:41 PM 33.6860 -78.0670 193° South 520 598 38,000  Level FlightAware ADS-B
Tue 04:53:16 PM 33.6070 -78.0900 194° South 521 600 38,000  Level FlightAware ADS-B
Tue 04:53:51 PM 33.5230 -78.1140 193° South 522 601 38,000  Level FlightAware ADS-B
Tue 04:54:21 PM 33.4530 -78.1340 193° South 523 602 38,000  Level FlightAware ADS-B
Tue 04:55:01 PM 33.3590 -78.1610 193° South 523 602 38,000  Level FlightAware ADS-B
Tue 04:55:36 PM 33.2780 -78.1840 193° South 523 602 38,000  Level FlightAware ADS-B
Tue 04:56:11 PM 33.1950 -78.2070 193° South 523 602 38,000  Level FlightAware ADS-B
Tue 04:56:46 PM 33.1170 -78.2290 193° South 523 602 38,000  Level FlightAware ADS-B
Tue 04:57:21 PM 33.0270 -78.2550 194° South 524 603 38,000  Level FlightAware ADS-B
Tue 04:57:57 PM 32.9370 -78.2800 193° South 524 603 38,000  Level FlightAware ADS-B
Tue 04:58:31 PM 32.8550 -78.3030 193° South 523 602 38,000  Level FlightAware ADS-B
Tue 04:59:06 PM 32.7820 -78.3240 194° South 522 601 38,000  Level FlightAware ADS-B
Tue 04:59:41 PM 32.7020 -78.3460 193° South 521 600 38,000  Level FlightAware ADS-B
Tue 05:00:25 PM 32.5650 -78.3850 193° South 522 601 38,000  Level FlightAware ADS-B
Tue 05:01:20 PM 32.4270 -78.4230 193° South 522 601 38,000  Level FlightAware ADS-B
Tue 05:01:50 PM 32.3660 -78.4410 194° South 521 600 38,000  Level FlightAware ADS-B
Tue 05:02:29 PM 32.2890 -78.4640 194° South 521 600 38,000  Level FlightAware ADS-B
Tue 05:03:03 PM 32.2210 -78.4840 194° South 521 600 38,000  Level FlightAware ADS-B
Tue 05:03:39 PM 32.1500 -78.5050 194° South 521 600 38,000  Level FlightAware ADS-B
Tue 05:04:15 PM 32.0780 -78.5260 194° South 521 600 38,000  Level FlightAware ADS-B
Tue 05:04:51 PM 32.0070 -78.5470 194° South 521 600 38,000  Level FlightAware ADS-B
Tue 05:05:26 PM 31.8510 -78.5900 193° South 517 595 38,000  Level FlightAware ADS-B
Tue 05:06:05 PM 31.7790 -78.6100 193° South 517 595 38,000  Level FlightAware ADS-B
Tue 05:06:51 PM 31.6600 -78.6440 194° South 518 596 38,000  Level FlightAware ADS-B
Tue 05:07:27 PM 31.5890 -78.6640 193° South 518 596 38,000  Level FlightAware ADS-B
Tue 05:08:04 PM 31.5150 -78.6840 193° South 518 596 38,000  Level FlightAware ADS-B
Tue 05:08:40 PM 31.4440 -78.7030 193° South 518 596 38,000  Level FlightAware ADS-B
Tue 05:09:16 PM 31.3720 -78.7220 193° South 518 596 38,000  Level FlightAware ADS-B
Tue 05:09:52 PM 31.3010 -78.7420 194° South 518 596 38,000  Level FlightAware ADS-B
Tue 05:10:32 PM 31.2210 -78.7630 193° South 518 596 38,000  Level FlightAware ADS-B
Tue 05:11:08 PM 31.1500 -78.7820 193° South 518 596 38,000  Level FlightAware ADS-B
Tue 05:11:55 PM 31.0570 -78.8070 193° South 518 596 38,000  Level FlightAware ADS-B
Tue 05:12:31 PM 30.9850 -78.8270 193° South 518 596 38,000  Level FlightAware ADS-B
Tue 05:13:08 PM 30.9120 -78.8460 193° South 518 596 38,000  Level FlightAware ADS-B
Tue 05:13:44 PM 30.8400 -78.8660 193° South 518 596 38,000  Level FlightAware ADS-B
Tue 05:14:20 PM 30.7690 -78.8850 193° South 518 596 38,000  Level FlightAware ADS-B
Tue 05:14:56 PM 30.6970 -78.9040 193° South 518 596 38,000  Level FlightAware ADS-B
Tue 05:15:33 PM 30.6240 -78.9240 193° South 518 596 38,000  Level FlightAware ADS-B
Tue 05:16:09 PM 30.5520 -78.9430 193° South 518 596 38,000  Level FlightAware ADS-B
Tue 05:17:01 PM 30.2489 -79.0456 193° South 525 604 38,000  Level Miami Center
Tue 05:18:01 PM 30.1169 -79.0981 199° South 525 604 38,000  Level Miami Center
Tue 05:19:01 PM 29.9825 -79.1550 200° South 525 604 38,000  Level Miami Center
Tue 05:20:01 PM 29.8442 -79.2072 198° South 520 598 38,000  Level Miami Center
Tue 05:21:01 PM 29.7117 -79.2639 200° South 514 592 38,000  Level Miami Center
Tue 05:26:48 PM 28.9030 -79.5660 200° South 513 590 38,000  Level FlightAware ADS-B
Tue 05:27:30 PM 28.8240 -79.5950 198° South 513 590 38,000  Level FlightAware ADS-B
Tue 05:27:58 PM 28.7500 -79.6240 199° South 521 600 38,000  Level FlightAware ADS-B
Tue 05:28:38 PM 28.6580 -79.6580 198° South 523 602 38,000  Level FlightAware ADS-B
Tue 05:29:18 PM 28.5600 -79.6950 198° South 524 603 38,000  Level FlightAware ADS-B
Tue 05:30:06 PM 28.4660 -79.7300 198° South 524 603 38,000  Level FlightAware ADS-B
Tue 05:30:44 PM 28.3630 -79.7700 199° South 521 600 38,000  Level FlightAware ADS-B
Tue 05:31:21 PM 28.2760 -79.8020 198° South 521 600 38,000  Level FlightAware ADS-B
Tue 05:31:55 PM 28.1980 -79.8310 198° South 522 601 38,000  Level FlightAware ADS-B
Tue 05:32:29 PM 28.1210 -79.8600 198° South 522 601 38,000  Level FlightAware ADS-B
Tue 05:33:04 PM 28.0400 -79.8910 199° South 522 601 38,000  Level FlightAware ADS-B
Tue 05:33:39 PM 27.9620 -79.9200 198° South 522 601 38,000  Level FlightAware ADS-B
Tue 05:34:15 PM 27.8800 -79.9500 198° South 522 601 38,000  Level FlightAware ADS-B
Tue 05:34:54 PM 27.7970 -79.9810 198° South 522 601 38,000  Level FlightAware ADS-B
Tue 05:35:44 PM 27.6750 -80.0260 198° South 523 602 38,000  Level FlightAware ADS-B
Tue 05:36:29 PM 27.5740 -80.0640 198° South 522 601 38,000  Level FlightAware ADS-B
Tue 05:37:04 PM 27.4890 -80.0950 198° South 521 600 38,000  Level FlightAware ADS-B
Tue 05:37:34 PM 27.4210 -80.1200 198° South 523 602 38,000  Level FlightAware ADS-B
Tue 05:38:09 PM 27.3430 -80.1490 198° South 524 603 38,000  Level FlightAware ADS-B
Tue 05:38:49 PM 27.2460 -80.1850 198° South 525 604 38,000  Level FlightAware ADS-B
Tue 05:39:24 PM 27.1670 -80.2140 198° South 526 605 38,000  Level FlightAware ADS-B
Tue 05:39:54 PM 27.0960 -80.2400 198° South 526 605 38,000  Level FlightAware ADS-B
Tue 05:40:34 PM 27.0050 -80.2730 198° South 524 603 38,000  Level FlightAware ADS-B
Tue 05:41:07 PM 26.9260 -80.3020 198° South 525 604 38,000  Level FlightAware ADS-B
Tue 05:41:42 PM 26.8460 -80.3310 198° South 524 603 38,000  Level FlightAware ADS-B
Tue 05:42:17 PM 26.7660 -80.3600 198° South 524 603 38,000  Level FlightAware ADS-B
Tue 05:42:52 PM 26.6860 -80.3900 199° South 524 603 38,000  Level FlightAware ADS-B
Tue 05:43:07 PM 26.6510 -80.4070 203° Southwest 516 594 38,000  Level FlightAware ADS-B
Tue 05:43:37 PM 26.5970 -80.4510 216° Southwest 510 587 38,000  Level FlightAware ADS-B
Tue 05:44:22 PM 26.5090 -80.5220 216° Southwest 512 589 38,000  Level FlightAware ADS-B
Tue 05:44:57 PM 26.4410 -80.5780 216° Southwest 513 590 38,000  Level FlightAware ADS-B
Tue 05:45:31 PM 26.3740 -80.6320 216° Southwest 513 590 38,000  Level FlightAware ADS-B
Tue 05:46:08 PM 26.3060 -80.6880 216° Southwest 505 581 38,000  Level FlightAware ADS-B
Tue 05:46:38 PM 26.2490 -80.7340 216° Southwest 505 581 38,000  Level FlightAware ADS-B
Tue 05:47:18 PM 26.1710 -80.7980 216° Southwest 514 592 38,000  Level FlightAware ADS-B
Tue 05:47:53 PM 26.1060 -80.8510 216° Southwest 499 574 38,000  Level FlightAware ADS-B
Tue 05:48:28 PM 26.0380 -80.9050 216° Southwest 498 573 38,000  Level FlightAware ADS-B
Tue 05:49:03 PM 25.9740 -80.9580 217° Southwest 497 572 38,000  Level FlightAware ADS-B
Tue 05:49:33 PM 25.9170 -81.0040 216° Southwest 502 578 38,000  Level FlightAware ADS-B
Tue 05:50:16 PM 25.8390 -81.0670 216° Southwest 501 577 38,000  Level FlightAware ADS-B
Tue 05:50:46 PM 25.7820 -81.1120 215° Southwest 501 577 38,000  Level FlightAware ADS-B
Tue 05:51:20 PM 25.7160 -81.1650 216° Southwest 500 575 38,000  Level FlightAware ADS-B
Tue 05:52:00 PM 25.6430 -81.2240 216° Southwest 500 575 38,000  Level FlightAware ADS-B
Tue 05:52:35 PM 25.5750 -81.2780 216° Southwest 501 577 38,000  Level FlightAware ADS-B
Tue 05:53:10 PM 25.5100 -81.3300 216° Southwest 496 571 38,000  Level FlightAware ADS-B
Tue 05:53:50 PM 25.4340 -81.3910 216° Southwest 497 572 38,000  Level FlightAware ADS-B
Tue 05:54:25 PM 25.3680 -81.4440 216° Southwest 497 572 38,000  Level FlightAware ADS-B
Tue 05:55:00 PM 25.3000 -81.4980 216° Southwest 497 572 38,000  Level FlightAware ADS-B
Tue 05:55:35 PM 25.2360 -81.5490 216° Southwest 496 571 38,000  Level FlightAware ADS-B
Tue 05:56:10 PM 25.1720 -81.5990 215° Southwest 495 570 38,000 -240 Level FlightAware ADS-B
Tue 05:56:50 PM 25.0940 -81.6620 216° Southwest 496 571 37,700 -720 Descending FlightAware ADS-B
Tue 05:57:25 PM 25.0270 -81.7140 215° Southwest 495 570 37,100 -1,029 Descending FlightAware ADS-B
Tue 05:58:00 PM 24.9640 -81.7640 216° Southwest 496 571 36,500 -943 Descending FlightAware ADS-B
Tue 05:58:35 PM 24.8950 -81.8190 216° Southwest 495 570 36,000 -943 Descending FlightAware ADS-B
Tue 05:59:10 PM 24.8280 -81.8720 216° Southwest 497 572 35,400 -1,360 Descending FlightAware ADS-B
Tue 05:59:50 PM 24.7530 -81.9310 216° Southwest 499 574 34,300 -1,629 Descending FlightAware ADS-B
Tue 06:00:20 PM 24.6970 -81.9750 216° Southwest 497 572 33,500 -1,662 Descending FlightAware ADS-B
Tue 06:00:55 PM 24.6370 -82.0220 215° Southwest 483 556 32,500 -1,726 Descending FlightAware ADS-B
Tue 06:01:33 PM 24.5620 -82.0810 216° Southwest 480 552 31,400 -1,750 Descending FlightAware ADS-B
Tue 06:02:07 PM 24.5030 -82.1270 215° Southwest 472 543 30,400 -1,739 Descending FlightAware ADS-B
Tue 06:02:42 PM 24.4370 -82.1780 215° Southwest 458 527 29,400 -1,754 Descending FlightAware ADS-B
Tue 06:03:12 PM 24.3860 -82.2190 216° Southwest 457 526 28,500 -1,750 Descending FlightAware ADS-B
Tue 06:03:54 PM 24.3140 -82.2740 215° Southwest 451 519 27,300 -1,565 Descending FlightAware ADS-B
Tue 06:04:21 PM 24.2770 -82.3040 216° Southwest 441 507 26,700 -1,040 Descending FlightAware ADS-B
Tue 06:05:09 PM 24.1960 -82.3670 215° Southwest 437 503 26,000 -500 Descending FlightAware ADS-B
Tue 06:05:45 PM 24.1460 -82.4070 216° Southwest 437 503 26,000  Level FlightAware ADS-B
Tue 06:06:21 PM 24.0960 -82.4470 216° Southwest 437 503 26,000  Level FlightAware ADS-B
Tue 06:06:57 PM 24.0460 -82.4870 216° Southwest 437 503 26,000  Level FlightAware ADS-B
Tue 06:07:33 PM 23.9960 -82.5270 216° Southwest 437 503 26,000  Level FlightAware ADS-B
Tue 06:08:09 PM 23.9460 -82.5660 215° Southwest 437 503 26,000  Level FlightAware ADS-B
Tue 06:13:00 PM 23.3463 -82.4674 171° South  Level Estimated
Tue 06:14:00 PM 23.2225 -82.4472 171° South  Level Estimated
Tue 06:15:00 PM 23.0987 -82.4269 171° South  Level Estimated
Tue 06:16:00 PM 22.9891 -82.4091 171° South  Level Estimated
Tue 06:17:00 PM 22.9891 -82.4091 51° Northeast  Level Estimated
Tue 06:18:00 PM 22.9891 -82.4091 51° Northeast  Level Estimated
Tue 06:19:00 PM 22.9891 -82.4091 51° Northeast  Level Estimated
Tue 06:20:00 PM 22.9891 -82.4091 51° Northeast  Level Estimated
Tue 06:21:00 PM 22.9891 -82.4091 51° Northeast  Level Estimated
Tue 06:22:00 PM 22.9891 -82.4091 51° Northeast  Level Estimated
Tue 06:23:00 PM 22.9891 -82.4091 51° Northeast  Level Estimated
Tue 06:24:00 PM 22.9891 -82.4091 51° Northeast  Level Estimated
Tue 06:25:00 PM 22.9891 -82.4091 51° Northeast  Level Estimated
Tue 06:26:00 PM 22.9891 -82.4091 51° Northeast  Level Estimated
Tue 06:27:00 PM 22.9891 -82.4091 51° Northeast  Level Estimated
Tue 06:28:00 PM 22.9891 -82.4091 51° Northeast  Level Estimated
Tue 06:29:00 PM 22.9891 -82.4091 51° Northeast  Level Estimated
Tue 06:30:00 PM 22.9891 -82.4091 51° Northeast  Level Estimated
Tue 06:31:00 PM 22.9891 -82.4091 51° Northeast  Level Estimated
Tue 06:32:00 PM 22.9891 -82.4091 51° Northeast  Level Estimated
Tue 06:33:00 PM 22.9891 -82.4091 51° Northeast  Level Estimated
Tue 06:34:00 PM 22.9891 -82.4091 51° Northeast  Level Estimated
Tue 06:35:00 PM 22.9891 -82.4091 51° Northeast  Level Estimated

Login

Don't have an account? Register now (free) for customized features, flight alerts, and more!